KLM268 SMJP-EHAM
Flight info
| Callsign | KLM268 |
|---|---|
| Flight time | N/A |
| Altitude | 33000 |
| Route | TODOL DCT 0730N05400W 0927N05300W 13N050W DCT QUETN/M084F350 DCT 19N045W 24N040W 28N035W 31N030W 35N025W 38N020W/M084F370 DCT BANAL DCT KOPAS/N0489F360 DCT PITAX/M084F370 DCT UMLER UN734 UMOXA/N0488F370 DCT AMPOP DCT SIDDI DCT DAWLY DCT GIBSO L620 SAM M140 DVR/N0454F230 L18 VABIK Q70 KOK DCT DENUT |
| Aircraft | B77W/H-SDE1E2E3FGHIJ2J3J4J5M1RWXY/LB1D1 |
Departure
| Time | 2026-05-03 21:26 |
|---|---|
| Airport | Johan Adolf Pengel International Airport (SMJP) |
Arrival
| Time | N/A |
|---|---|
| Airport | Amsterdam Airport Schiphol (EHAM) |
| Time | Latitude | Longitude | Altitude | Speed | Heading |
|---|---|---|---|---|---|
| 2026-05-03 21:10 | 5.45515 | -55.19799 | 67 ft | 0 kts | 88° |
| 2026-05-03 21:17 | 5.45515 | -55.19789 | 62 ft | 5 kts | 90° |
| 2026-05-03 21:18 | 5.45473 | -55.19739 | 63 ft | 12 kts | 159° |
| 2026-05-03 21:18 | 5.45393 | -55.19726 | 61 ft | 12 kts | 178° |
| 2026-05-03 21:18 | 5.45313 | -55.19716 | 59 ft | 12 kts | 154° |
| 2026-05-03 21:18 | 5.45284 | -55.19645 | 62 ft | 12 kts | 89° |
| 2026-05-03 21:19 | 5.45285 | -55.19563 | 64 ft | 12 kts | 89° |
| 2026-05-03 21:19 | 5.45286 | -55.19482 | 65 ft | 12 kts | 90° |
| 2026-05-03 21:19 | 5.45286 | -55.19427 | 64 ft | 12 kts | 90° |
| 2026-05-03 21:19 | 5.45286 | -55.19346 | 63 ft | 12 kts | 90° |
| 2026-05-03 21:20 | 5.45286 | -55.19264 | 61 ft | 12 kts | 90° |
| 2026-05-03 21:20 | 5.45286 | -55.19182 | 60 ft | 12 kts | 90° |
| 2026-05-03 21:20 | 5.45286 | -55.19100 | 60 ft | 12 kts | 90° |
| 2026-05-03 21:20 | 5.45286 | -55.19018 | 60 ft | 12 kts | 90° |
| 2026-05-03 21:21 | 5.45286 | -55.18934 | 59 ft | 13 kts | 90° |
| 2026-05-03 21:21 | 5.45288 | -55.18835 | 57 ft | 15 kts | 89° |
| 2026-05-03 21:21 | 5.45289 | -55.18721 | 56 ft | 17 kts | 89° |
| 2026-05-03 21:21 | 5.45291 | -55.18600 | 61 ft | 17 kts | 89° |
| 2026-05-03 21:22 | 5.45294 | -55.18479 | 63 ft | 17 kts | 89° |
| 2026-05-03 21:22 | 5.45294 | -55.18358 | 64 ft | 17 kts | 89° |
| 2026-05-03 21:22 | 5.45295 | -55.18237 | 58 ft | 17 kts | 90° |
| 2026-05-03 21:22 | 5.45296 | -55.18115 | 59 ft | 17 kts | 90° |
| 2026-05-03 21:23 | 5.45296 | -55.17994 | 62 ft | 17 kts | 90° |
| 2026-05-03 21:23 | 5.45296 | -55.17873 | 63 ft | 17 kts | 90° |
| 2026-05-03 21:23 | 5.45296 | -55.17752 | 63 ft | 17 kts | 90° |
| 2026-05-03 21:23 | 5.45296 | -55.17631 | 63 ft | 17 kts | 90° |
| 2026-05-03 21:24 | 5.45301 | -55.17510 | 62 ft | 17 kts | 76° |
| 2026-05-03 21:24 | 5.45377 | -55.17419 | 62 ft | 17 kts | 41° |
| 2026-05-03 21:24 | 5.45450 | -55.17336 | 65 ft | 14 kts | 63° |
| 2026-05-03 21:24 | 5.45448 | -55.17240 | 63 ft | 14 kts | 125° |
| 2026-05-03 21:25 | 5.45355 | -55.17219 | 64 ft | 14 kts | 185° |
| 2026-05-03 21:25 | 5.45298 | -55.17275 | 58 ft | 12 kts | 268° |
| 2026-05-03 21:25 | 5.45298 | -55.17289 | 59 ft | 2 kts | 269° |
| 2026-05-03 21:25 | 5.45296 | -55.17419 | 62 ft | 45 kts | 269° |
| 2026-05-03 21:26 | 5.45294 | -55.17983 | 70 ft | 116 kts | 269° |
| 2026-05-03 21:26 | 5.45290 | -55.19006 | 68 ft | 174 kts | 270° |
| 2026-05-03 21:26 | 5.45276 | -55.20296 | 372 ft | 190 kts | 273° |
| 2026-05-03 21:26 | 5.45279 | -55.21625 | 918 ft | 193 kts | 273° |
| 2026-05-03 21:27 | 5.45285 | -55.22991 | 1379 ft | 198 kts | 272° |
| 2026-05-03 21:27 | 5.45291 | -55.24370 | 1913 ft | 199 kts | 272° |
| 2026-05-03 21:27 | 5.45294 | -55.25800 | 2333 ft | 211 kts | 272° |
| 2026-05-03 21:27 | 5.45456 | -55.27293 | 2586 ft | 223 kts | 298° |
| 2026-05-03 21:28 | 5.46487 | -55.28428 | 2750 ft | 228 kts | 341° |
| 2026-05-03 21:28 | 5.48069 | -55.28628 | 2926 ft | 241 kts | 19° |
| 2026-05-03 21:28 | 5.49555 | -55.27859 | 3421 ft | 244 kts | 40° |
| 2026-05-03 21:28 | 5.50897 | -55.26766 | 4087 ft | 252 kts | 42° |
| 2026-05-03 21:29 | 5.52241 | -55.25619 | 4870 ft | 256 kts | 43° |
| 2026-05-03 21:29 | 5.52882 | -55.25068 | 5259 ft | 258 kts | 43° |
| 2026-05-03 21:29 | 5.54245 | -55.23890 | 6065 ft | 260 kts | 43° |
| 2026-05-03 21:29 | 5.55623 | -55.22700 | 6813 ft | 263 kts | 43° |
| 2026-05-03 21:30 | 5.57018 | -55.21497 | 7527 ft | 267 kts | 43° |
| 2026-05-03 21:30 | 5.58446 | -55.20268 | 8210 ft | 272 kts | 43° |
| 2026-05-03 21:30 | 5.59893 | -55.19025 | 8937 ft | 277 kts | 43° |
| 2026-05-03 21:30 | 5.61369 | -55.17761 | 9652 ft | 281 kts | 42° |
| 2026-05-03 21:31 | 5.62867 | -55.16478 | 10287 ft | 286 kts | 42° |
| 2026-05-03 21:31 | 5.64436 | -55.15135 | 10521 ft | 309 kts | 42° |
| 2026-05-03 21:31 | 5.66125 | -55.13687 | 10714 ft | 332 kts | 43° |
| 2026-05-03 21:31 | 5.67910 | -55.12092 | 10877 ft | 354 kts | 44° |
| 2026-05-03 21:32 | 5.69784 | -55.10406 | 11278 ft | 367 kts | 43° |
| 2026-05-03 21:32 | 5.71723 | -55.08692 | 11857 ft | 375 kts | 43° |
| 2026-05-03 21:32 | 5.73686 | -55.06990 | 12540 ft | 379 kts | 42° |
| 2026-05-03 21:32 | 5.75698 | -55.05268 | 13297 ft | 381 kts | 42° |
| 2026-05-03 21:33 | 5.77732 | -55.03542 | 13986 ft | 385 kts | 41° |
| 2026-05-03 21:33 | 5.79793 | -55.01800 | 14583 ft | 389 kts | 41° |
| 2026-05-03 21:33 | 5.81875 | -55.00042 | 15190 ft | 393 kts | 41° |
| 2026-05-03 21:33 | 5.83976 | -54.98270 | 15793 ft | 396 kts | 41° |
| 2026-05-03 21:34 | 5.86099 | -54.96479 | 16391 ft | 400 kts | 41° |
| 2026-05-03 21:34 | 5.87134 | -54.95605 | 16673 ft | 402 kts | 41° |
| 2026-05-03 21:34 | 5.89284 | -54.93789 | 17263 ft | 405 kts | 41° |
| 2026-05-03 21:34 | 5.91451 | -54.91960 | 17837 ft | 409 kts | 41° |
| 2026-05-03 21:35 | 5.93636 | -54.90114 | 18351 ft | 413 kts | 41° |
| 2026-05-03 21:35 | 5.95847 | -54.88247 | 18829 ft | 417 kts | 41° |
| 2026-05-03 21:35 | 5.98081 | -54.86359 | 19278 ft | 421 kts | 41° |
| 2026-05-03 21:35 | 6.00338 | -54.84462 | 19754 ft | 425 kts | 40° |
| 2026-05-03 21:36 | 6.02736 | -54.82698 | 20203 ft | 430 kts | 34° |
| 2026-05-03 21:36 | 6.05336 | -54.81176 | 20653 ft | 434 kts | 31° |
| 2026-05-03 21:36 | 6.07992 | -54.79706 | 21095 ft | 438 kts | 30° |
| 2026-05-03 21:36 | 6.10679 | -54.78226 | 21540 ft | 442 kts | 31° |
| 2026-05-03 21:37 | 6.13387 | -54.76730 | 21965 ft | 446 kts | 31° |
| 2026-05-03 21:37 | 6.16117 | -54.75217 | 22387 ft | 450 kts | 31° |
| 2026-05-03 21:37 | 6.18866 | -54.73686 | 22811 ft | 453 kts | 31° |
| 2026-05-03 21:37 | 6.21634 | -54.72141 | 23220 ft | 457 kts | 31° |
| 2026-05-03 21:38 | 6.24428 | -54.70577 | 23582 ft | 462 kts | 31° |
| 2026-05-03 21:38 | 6.27239 | -54.69001 | 23911 ft | 465 kts | 31° |
| 2026-05-03 21:38 | 6.30077 | -54.67410 | 24253 ft | 468 kts | 31° |
| 2026-05-03 21:38 | 6.32922 | -54.65815 | 24593 ft | 471 kts | 30° |
| 2026-05-03 21:39 | 6.35796 | -54.64204 | 24913 ft | 474 kts | 30° |
| 2026-05-03 21:39 | 6.37136 | -54.63453 | 25051 ft | 476 kts | 30° |
| 2026-05-03 21:39 | 6.40039 | -54.61825 | 25357 ft | 479 kts | 30° |
| 2026-05-03 21:39 | 6.42959 | -54.60188 | 25664 ft | 482 kts | 29° |
| 2026-05-03 21:40 | 6.45902 | -54.58538 | 25951 ft | 486 kts | 29° |
| 2026-05-03 21:40 | 6.48863 | -54.56877 | 26243 ft | 489 kts | 29° |
| 2026-05-03 21:40 | 6.51843 | -54.55205 | 26540 ft | 492 kts | 28° |
| 2026-05-03 21:40 | 6.54802 | -54.53546 | 26816 ft | 495 kts | 28° |
| 2026-05-03 21:41 | 6.57822 | -54.51852 | 27089 ft | 498 kts | 28° |
| 2026-05-03 21:41 | 6.60858 | -54.50148 | 27385 ft | 501 kts | 28° |
| 2026-05-03 21:41 | 6.63910 | -54.48434 | 27657 ft | 504 kts | 28° |
| 2026-05-03 21:41 | 6.66984 | -54.46709 | 27909 ft | 507 kts | 28° |
| 2026-05-03 21:42 | 6.70075 | -54.44973 | 28172 ft | 510 kts | 27° |
| 2026-05-03 21:42 | 6.73173 | -54.43233 | 28452 ft | 512 kts | 27° |
| 2026-05-03 21:42 | 6.76293 | -54.41481 | 28716 ft | 514 kts | 27° |
| 2026-05-03 21:42 | 6.79419 | -54.39726 | 28965 ft | 516 kts | 27° |
| 2026-05-03 21:43 | 6.82558 | -54.37962 | 29186 ft | 518 kts | 27° |
| 2026-05-03 21:43 | 6.85709 | -54.36192 | 29407 ft | 520 kts | 27° |
| 2026-05-03 21:43 | 6.88872 | -54.34415 | 29613 ft | 522 kts | 27° |
| 2026-05-03 21:43 | 6.92056 | -54.32625 | 29820 ft | 524 kts | 27° |
| 2026-05-03 21:44 | 6.95246 | -54.30831 | 30055 ft | 525 kts | 27° |
| 2026-05-03 21:44 | 6.96728 | -54.29998 | 30163 ft | 525 kts | 27° |
| 2026-05-03 21:44 | 6.99915 | -54.28205 | 30432 ft | 524 kts | 27° |
| 2026-05-03 21:44 | 7.03091 | -54.26418 | 30749 ft | 522 kts | 27° |
| 2026-05-03 21:45 | 7.06257 | -54.24637 | 31052 ft | 521 kts | 27° |
| 2026-05-03 21:45 | 7.09422 | -54.22856 | 31316 ft | 521 kts | 27° |
| 2026-05-03 21:45 | 7.12581 | -54.21079 | 31598 ft | 520 kts | 27° |
| 2026-05-03 21:45 | 7.15742 | -54.19300 | 31868 ft | 520 kts | 26° |
| 2026-05-03 21:46 | 7.18891 | -54.17528 | 32147 ft | 519 kts | 26° |
| 2026-05-03 21:46 | 7.22041 | -54.15755 | 32428 ft | 518 kts | 26° |
| 2026-05-03 21:46 | 7.25191 | -54.13981 | 32711 ft | 517 kts | 26° |
| 2026-05-03 21:46 | 7.28330 | -54.12214 | 32890 ft | 519 kts | 26° |
| 2026-05-03 21:47 | 7.34642 | -54.08659 | 32958 ft | 518 kts | 26° |
| 2026-05-03 21:47 | 7.40922 | -54.05119 | 32957 ft | 516 kts | 26° |
| 2026-05-03 21:48 | 7.47175 | -54.01594 | 32964 ft | 515 kts | 26° |
| 2026-05-03 21:48 | 7.53454 | -53.98124 | 32965 ft | 514 kts | 24° |
| 2026-05-03 21:49 | 7.58079 | -53.95766 | 32964 ft | 515 kts | 23° |
| 2026-05-03 21:49 | 7.64463 | -53.92585 | 32967 ft | 516 kts | 23° |
| 2026-05-03 21:50 | 7.70888 | -53.89349 | 32966 ft | 517 kts | 23° |
| 2026-05-03 21:50 | 7.77319 | -53.86072 | 32971 ft | 518 kts | 23° |
| 2026-05-03 21:51 | 7.83750 | -53.82782 | 32968 ft | 519 kts | 23° |
| 2026-05-03 21:51 | 7.90189 | -53.79488 | 32972 ft | 519 kts | 23° |
| 2026-05-03 21:52 | 7.96621 | -53.76199 | 32969 ft | 518 kts | 23° |
| 2026-05-03 21:52 | 8.03042 | -53.72915 | 32971 ft | 517 kts | 23° |
| 2026-05-03 21:53 | 8.09458 | -53.69633 | 32973 ft | 516 kts | 23° |
| 2026-05-03 21:53 | 8.15855 | -53.66360 | 32972 ft | 515 kts | 23° |
| 2026-05-03 21:54 | 8.20645 | -53.63908 | 32973 ft | 514 kts | 23° |
| 2026-05-03 21:54 | 8.27023 | -53.60642 | 32974 ft | 514 kts | 23° |
| 2026-05-03 21:55 | 8.33389 | -53.57381 | 32976 ft | 513 kts | 23° |
| 2026-05-03 21:55 | 8.39748 | -53.54122 | 32980 ft | 512 kts | 23° |
| 2026-05-03 21:56 | 8.46101 | -53.50865 | 32976 ft | 512 kts | 23° |
| 2026-05-03 21:56 | 8.52452 | -53.47609 | 32978 ft | 511 kts | 23° |
| 2026-05-03 21:57 | 8.58753 | -53.44377 | 32979 ft | 511 kts | 23° |
| 2026-05-03 21:57 | 8.65095 | -53.41122 | 32982 ft | 512 kts | 23° |
| 2026-05-03 21:58 | 8.71445 | -53.37862 | 32980 ft | 512 kts | 23° |
| 2026-05-03 21:58 | 8.77798 | -53.34599 | 32983 ft | 512 kts | 23° |
| 2026-05-03 21:59 | 8.82566 | -53.32150 | 32982 ft | 513 kts | 24° |
| 2026-05-03 21:59 | 8.88926 | -53.28880 | 32984 ft | 513 kts | 24° |
| 2026-05-03 22:00 | 8.95107 | -53.25702 | 32983 ft | 514 kts | 24° |
| 2026-05-03 22:00 | 9.01482 | -53.22424 | 32985 ft | 514 kts | 24° |
| 2026-05-03 22:01 | 9.07861 | -53.19141 | 32986 ft | 515 kts | 24° |
| 2026-05-03 22:01 | 9.14244 | -53.15855 | 32988 ft | 515 kts | 24° |
| 2026-05-03 22:02 | 9.20634 | -53.12564 | 32990 ft | 515 kts | 24° |
| 2026-05-03 22:02 | 9.27016 | -53.09276 | 32990 ft | 515 kts | 24° |
| 2026-05-03 22:03 | 9.33392 | -53.05989 | 32988 ft | 514 kts | 24° |
| 2026-05-03 22:03 | 9.39770 | -53.02700 | 32992 ft | 514 kts | 24° |
| 2026-05-03 22:04 | 9.44145 | -53.00332 | 32988 ft | 516 kts | 28° |
| 2026-05-03 22:04 | 9.49962 | -52.96038 | 32997 ft | 519 kts | 37° |
| 2026-05-03 22:05 | 9.55509 | -52.91342 | 32996 ft | 520 kts | 37° |
| 2026-05-03 22:05 | 9.61059 | -52.86650 | 32993 ft | 520 kts | 37° |
| 2026-05-03 22:06 | 9.66638 | -52.81981 | 32996 ft | 520 kts | 37° |
| 2026-05-03 22:06 | 9.72223 | -52.77329 | 32995 ft | 520 kts | 37° |
| 2026-05-03 22:07 | 9.77475 | -52.72954 | 32995 ft | 520 kts | 37° |
| 2026-05-03 22:07 | 9.83019 | -52.68331 | 32997 ft | 520 kts | 37° |
| 2026-05-03 22:08 | 9.88267 | -52.63951 | 32998 ft | 520 kts | 37° |
| 2026-05-03 22:08 | 9.93849 | -52.59290 | 33000 ft | 519 kts | 37° |
| 2026-05-03 22:09 | 9.97594 | -52.56161 | 32998 ft | 519 kts | 37° |
| 2026-05-03 22:10 | 10.04832 | -52.50112 | 33003 ft | 519 kts | 37° |
| 2026-05-03 22:10 | 10.10331 | -52.45514 | 33002 ft | 518 kts | 37° |
| 2026-05-03 22:11 | 10.15467 | -52.41218 | 33004 ft | 518 kts | 37° |
| 2026-05-03 22:11 | 10.21025 | -52.36566 | 33003 ft | 517 kts | 37° |
| 2026-05-03 22:12 | 10.26322 | -52.32131 | 33007 ft | 517 kts | 37° |
| 2026-05-03 22:12 | 10.31859 | -52.27494 | 33005 ft | 516 kts | 37° |
| 2026-05-03 22:13 | 10.37058 | -52.23136 | 33007 ft | 515 kts | 37° |
| 2026-05-03 22:13 | 10.42591 | -52.18497 | 33005 ft | 515 kts | 37° |
| 2026-05-03 22:14 | 10.47782 | -52.14143 | 33010 ft | 515 kts | 37° |
| 2026-05-03 22:14 | 10.51907 | -52.10682 | 33008 ft | 515 kts | 37° |
| 2026-05-03 22:15 | 10.57101 | -52.06322 | 33007 ft | 515 kts | 37° |
| 2026-05-03 22:15 | 10.62624 | -52.01683 | 33009 ft | 515 kts | 37° |
| 2026-05-03 22:16 | 10.67811 | -51.97325 | 33013 ft | 515 kts | 37° |
| 2026-05-03 22:16 | 10.73334 | -51.92681 | 33010 ft | 515 kts | 37° |
| 2026-05-03 22:17 | 10.78402 | -51.88419 | 33014 ft | 515 kts | 37° |
| 2026-05-03 22:17 | 10.83928 | -51.83769 | 33013 ft | 516 kts | 37° |
| 2026-05-03 22:18 | 10.89208 | -51.79324 | 33013 ft | 516 kts | 37° |
| 2026-05-03 22:18 | 10.94736 | -51.74667 | 33013 ft | 516 kts | 37° |
| 2026-05-03 22:19 | 10.99847 | -51.70360 | 33017 ft | 516 kts | 37° |
| 2026-05-03 22:19 | 11.03968 | -51.66887 | 33015 ft | 516 kts | 37° |
| 2026-05-03 22:20 | 11.09078 | -51.62576 | 33018 ft | 516 kts | 37° |
| 2026-05-03 22:20 | 11.14608 | -51.57911 | 33018 ft | 516 kts | 37° |
| 2026-05-03 22:21 | 11.19803 | -51.53525 | 33024 ft | 516 kts | 37° |
| 2026-05-03 22:21 | 11.25335 | -51.48853 | 33023 ft | 516 kts | 37° |
| 2026-05-03 22:22 | 11.30527 | -51.44464 | 33023 ft | 516 kts | 37° |
| 2026-05-03 22:22 | 11.36049 | -51.39795 | 33020 ft | 516 kts | 37° |
| 2026-05-03 22:23 | 11.41150 | -51.35481 | 33023 ft | 516 kts | 37° |
| 2026-05-03 22:23 | 11.46667 | -51.30811 | 33023 ft | 515 kts | 37° |
| 2026-05-03 22:24 | 11.51849 | -51.26423 | 33025 ft | 515 kts | 37° |
| 2026-05-03 22:24 | 11.55977 | -51.22926 | 33024 ft | 515 kts | 37° |
| 2026-05-03 22:25 | 11.61454 | -51.18284 | 33027 ft | 515 kts | 37° |
| 2026-05-03 22:25 | 11.66966 | -51.13611 | 33027 ft | 515 kts | 37° |
| 2026-05-03 22:26 | 11.72476 | -51.08935 | 33028 ft | 515 kts | 37° |
| 2026-05-03 22:26 | 11.77984 | -51.04259 | 33028 ft | 515 kts | 37° |
| 2026-05-03 22:27 | 11.83495 | -50.99579 | 33029 ft | 515 kts | 37° |
| 2026-05-03 22:27 | 11.89003 | -50.94898 | 33034 ft | 515 kts | 37° |
| 2026-05-03 22:28 | 11.94515 | -50.90211 | 33036 ft | 516 kts | 37° |
| 2026-05-03 22:28 | 12.00029 | -50.85520 | 33030 ft | 516 kts | 37° |
| 2026-05-03 22:29 | 12.05549 | -50.80821 | 33032 ft | 516 kts | 37° |
| 2026-05-03 22:29 | 12.09693 | -50.77292 | 33032 ft | 517 kts | 37° |
| 2026-05-03 22:30 | 12.15216 | -50.72586 | 33032 ft | 517 kts | 37° |
| 2026-05-03 22:30 | 12.20737 | -50.67879 | 33042 ft | 517 kts | 37° |
| 2026-05-03 22:31 | 12.26256 | -50.63172 | 33045 ft | 517 kts | 37° |
| 2026-05-03 22:31 | 12.31775 | -50.58461 | 33037 ft | 517 kts | 37° |
| 2026-05-03 22:32 | 12.37293 | -50.53748 | 33039 ft | 516 kts | 37° |
| 2026-05-03 22:32 | 12.42803 | -50.49040 | 33037 ft | 516 kts | 37° |
| 2026-05-03 22:33 | 12.48313 | -50.44330 | 33042 ft | 516 kts | 37° |
| 2026-05-03 22:33 | 12.53821 | -50.39618 | 33043 ft | 516 kts | 37° |
| 2026-05-03 22:34 | 12.59323 | -50.34908 | 33047 ft | 515 kts | 37° |
| 2026-05-03 22:34 | 12.63455 | -50.31369 | 33040 ft | 515 kts | 37° |
| 2026-05-03 22:35 | 12.68950 | -50.26662 | 33041 ft | 515 kts | 37° |
| 2026-05-03 22:35 | 12.74404 | -50.21986 | 33040 ft | 515 kts | 37° |
| 2026-05-03 22:36 | 12.79893 | -50.17277 | 33044 ft | 515 kts | 37° |
| 2026-05-03 22:36 | 12.85382 | -50.12565 | 33047 ft | 514 kts | 37° |
| 2026-05-03 22:37 | 12.90862 | -50.07858 | 33048 ft | 514 kts | 37° |
| 2026-05-03 22:37 | 12.96344 | -50.03146 | 33046 ft | 514 kts | 37° |
| 2026-05-03 22:38 | 13.01837 | -49.98455 | 33051 ft | 513 kts | 36° |
| 2026-05-03 22:38 | 13.07502 | -49.94017 | 33048 ft | 512 kts | 33° |
| 2026-05-03 22:39 | 13.13223 | -49.89674 | 33051 ft | 512 kts | 33° |
| 2026-05-03 22:39 | 13.17407 | -49.86469 | 33049 ft | 512 kts | 34° |
| 2026-05-03 22:40 | 13.23088 | -49.82068 | 33052 ft | 512 kts | 34° |
| 2026-05-03 22:40 | 13.28760 | -49.77647 | 33047 ft | 512 kts | 34° |
| 2026-05-03 22:41 | 13.34420 | -49.73231 | 33051 ft | 511 kts | 34° |
| 2026-05-03 22:41 | 13.40078 | -49.68818 | 33050 ft | 511 kts | 34° |
| 2026-05-03 22:41 | 13.42919 | -49.66602 | 33192 ft | 513 kts | 34° |
| 2026-05-03 22:42 | 13.45763 | -49.64384 | 33493 ft | 512 kts | 34° |
| 2026-05-03 22:42 | 13.48597 | -49.62172 | 33827 ft | 511 kts | 34° |
| 2026-05-03 22:42 | 13.51423 | -49.59965 | 34126 ft | 510 kts | 34° |
| 2026-05-03 22:42 | 13.54243 | -49.57763 | 34398 ft | 509 kts | 34° |
| 2026-05-03 22:43 | 13.57022 | -49.55591 | 34662 ft | 508 kts | 34° |
| 2026-05-03 22:43 | 13.59830 | -49.53397 | 34903 ft | 508 kts | 34° |
| 2026-05-03 22:43 | 13.62683 | -49.51167 | 34996 ft | 509 kts | 33° |
| 2026-05-03 22:44 | 13.68287 | -49.46787 | 35051 ft | 509 kts | 33° |
| 2026-05-03 22:44 | 13.72502 | -49.43487 | 35050 ft | 507 kts | 33° |
| 2026-05-03 22:45 | 13.78110 | -49.39097 | 35053 ft | 506 kts | 33° |
| 2026-05-03 22:45 | 13.83704 | -49.34715 | 35065 ft | 505 kts | 33° |
| 2026-05-03 22:46 | 13.89292 | -49.30335 | 35059 ft | 505 kts | 33° |
| 2026-05-03 22:46 | 13.94889 | -49.25947 | 35054 ft | 506 kts | 33° |
| 2026-05-03 22:47 | 14.00488 | -49.21553 | 35057 ft | 506 kts | 33° |
| 2026-05-03 22:47 | 14.06090 | -49.17153 | 35059 ft | 507 kts | 33° |
| 2026-05-03 22:48 | 14.11705 | -49.12741 | 35064 ft | 508 kts | 33° |
| 2026-05-03 22:48 | 14.17323 | -49.08324 | 35101 ft | 508 kts | 34° |
| 2026-05-03 22:49 | 14.22940 | -49.03904 | 35076 ft | 508 kts | 34° |
| 2026-05-03 22:49 | 14.27025 | -49.00687 | 35065 ft | 507 kts | 34° |
| 2026-05-03 22:50 | 14.32619 | -48.96281 | 35065 ft | 506 kts | 34° |
| 2026-05-03 22:50 | 14.38205 | -48.91878 | 35064 ft | 505 kts | 34° |
| 2026-05-03 22:51 | 14.43778 | -48.87483 | 35066 ft | 504 kts | 34° |
| 2026-05-03 22:51 | 14.49348 | -48.83088 | 35073 ft | 504 kts | 34° |
| 2026-05-03 22:52 | 14.54920 | -48.78688 | 35075 ft | 504 kts | 34° |
| 2026-05-03 22:52 | 14.60484 | -48.74291 | 35078 ft | 504 kts | 34° |
| 2026-05-03 22:53 | 14.66048 | -48.69891 | 35073 ft | 503 kts | 34° |
| 2026-05-03 22:53 | 14.71608 | -48.65492 | 35067 ft | 503 kts | 34° |
| 2026-05-03 22:54 | 14.77072 | -48.61165 | 35076 ft | 502 kts | 34° |
| 2026-05-03 22:54 | 14.81134 | -48.57947 | 35071 ft | 501 kts | 34° |
| 2026-05-03 22:55 | 14.86657 | -48.53568 | 35080 ft | 500 kts | 34° |
| 2026-05-03 22:55 | 14.92164 | -48.49200 | 35082 ft | 498 kts | 34° |
| 2026-05-03 22:56 | 14.97653 | -48.44843 | 35065 ft | 497 kts | 34° |
| 2026-05-03 22:56 | 15.03129 | -48.40494 | 35066 ft | 496 kts | 34° |
| 2026-05-03 22:57 | 15.08588 | -48.36156 | 35086 ft | 495 kts | 34° |
| 2026-05-03 22:57 | 15.14046 | -48.31815 | 35084 ft | 494 kts | 34° |
| 2026-05-03 22:58 | 15.19500 | -48.27476 | 35065 ft | 495 kts | 34° |
| 2026-05-03 22:58 | 15.24955 | -48.23131 | 35075 ft | 495 kts | 34° |
| 2026-05-03 22:59 | 15.30376 | -48.18811 | 35081 ft | 495 kts | 34° |
| 2026-05-03 22:59 | 15.34381 | -48.15618 | 35097 ft | 496 kts | 34° |
| 2026-05-03 23:00 | 15.38966 | -48.11960 | 35079 ft | 497 kts | 34° |
| 2026-05-03 23:00 | 15.45337 | -48.06874 | 35080 ft | 498 kts | 34° |
| 2026-05-03 23:01 | 15.49932 | -48.03203 | 35086 ft | 498 kts | 34° |
| 2026-05-03 23:01 | 15.55420 | -47.98816 | 35085 ft | 498 kts | 34° |
| 2026-05-03 23:02 | 15.60910 | -47.94424 | 35087 ft | 499 kts | 34° |
| 2026-05-03 23:02 | 15.66402 | -47.90027 | 35082 ft | 499 kts | 34° |
| 2026-05-03 23:03 | 15.71894 | -47.85628 | 35086 ft | 499 kts | 34° |
| 2026-05-03 23:03 | 15.77350 | -47.81254 | 35084 ft | 499 kts | 34° |
| 2026-05-03 23:04 | 15.82836 | -47.76854 | 35091 ft | 498 kts | 34° |
| 2026-05-03 23:04 | 15.86943 | -47.73557 | 35096 ft | 498 kts | 34° |
| 2026-05-03 23:05 | 15.92426 | -47.69154 | 35091 ft | 498 kts | 34° |
| 2026-05-03 23:05 | 15.97910 | -47.64746 | 35092 ft | 498 kts | 34° |
| 2026-05-03 23:06 | 16.03390 | -47.60338 | 35094 ft | 498 kts | 34° |
| 2026-05-03 23:06 | 16.08866 | -47.55930 | 35093 ft | 498 kts | 35° |
| 2026-05-03 23:07 | 16.14341 | -47.51521 | 35088 ft | 497 kts | 35° |
| 2026-05-03 23:07 | 16.19808 | -47.47114 | 35094 ft | 497 kts | 35° |
| 2026-05-03 23:08 | 16.25275 | -47.42704 | 35096 ft | 497 kts | 35° |
| 2026-05-03 23:08 | 16.30735 | -47.38297 | 35098 ft | 496 kts | 35° |
| 2026-05-03 23:09 | 16.36188 | -47.33892 | 35096 ft | 496 kts | 35° |
| 2026-05-03 23:09 | 16.40269 | -47.30594 | 35101 ft | 496 kts | 35° |
| 2026-05-03 23:10 | 16.45713 | -47.26190 | 35100 ft | 495 kts | 35° |
| 2026-05-03 23:10 | 16.51156 | -47.21784 | 35098 ft | 495 kts | 35° |
| 2026-05-03 23:11 | 16.56593 | -47.17380 | 35097 ft | 495 kts | 35° |
| 2026-05-03 23:11 | 16.62027 | -47.12976 | 35101 ft | 495 kts | 36° |
| 2026-05-03 23:12 | 16.67456 | -47.08572 | 35100 ft | 495 kts | 36° |
| 2026-05-03 23:12 | 16.72888 | -47.04162 | 35103 ft | 495 kts | 36° |
| 2026-05-03 23:13 | 16.78314 | -46.99754 | 35105 ft | 495 kts | 36° |
| 2026-05-03 23:13 | 16.83741 | -46.95341 | 35104 ft | 494 kts | 36° |
| 2026-05-03 23:14 | 16.88985 | -46.91075 | 35105 ft | 494 kts | 36° |
| 2026-05-03 23:14 | 16.92944 | -46.87852 | 35104 ft | 494 kts | 36° |
| 2026-05-03 23:15 | 16.98329 | -46.83465 | 35107 ft | 494 kts | 36° |
| 2026-05-03 23:15 | 17.03746 | -46.79049 | 35106 ft | 494 kts | 36° |
| 2026-05-03 23:16 | 17.09161 | -46.74631 | 35106 ft | 494 kts | 36° |
| 2026-05-03 23:16 | 17.14573 | -46.70212 | 35105 ft | 493 kts | 36° |
| 2026-05-03 23:17 | 17.19981 | -46.65793 | 35108 ft | 493 kts | 36° |
| 2026-05-03 23:17 | 17.25385 | -46.61374 | 35106 ft | 493 kts | 36° |
| 2026-05-03 23:18 | 17.30792 | -46.56949 | 35109 ft | 493 kts | 36° |
| 2026-05-03 23:18 | 17.36190 | -46.52528 | 35110 ft | 493 kts | 36° |
| 2026-05-03 23:19 | 17.41596 | -46.48097 | 35108 ft | 493 kts | 36° |
| 2026-05-03 23:19 | 17.45653 | -46.44770 | 35106 ft | 493 kts | 36° |
| 2026-05-03 23:20 | 17.51054 | -46.40337 | 35112 ft | 493 kts | 36° |
| 2026-05-03 23:20 | 17.56458 | -46.35898 | 35113 ft | 494 kts | 36° |
| 2026-05-03 23:21 | 17.61861 | -46.31456 | 35112 ft | 494 kts | 36° |
| 2026-05-03 23:21 | 17.67268 | -46.27008 | 35114 ft | 494 kts | 36° |
| 2026-05-03 23:22 | 17.75383 | -46.20325 | 35115 ft | 495 kts | 36° |
| 2026-05-03 23:22 | 17.80792 | -46.15867 | 35114 ft | 495 kts | 36° |
| 2026-05-03 23:23 | 17.86207 | -46.11399 | 35117 ft | 495 kts | 36° |
| 2026-05-03 23:23 | 17.91622 | -46.06927 | 35119 ft | 495 kts | 36° |
| 2026-05-03 23:24 | 17.95668 | -46.03584 | 35118 ft | 496 kts | 36° |
| 2026-05-03 23:24 | 18.01040 | -45.99041 | 35109 ft | 497 kts | 40° |
| 2026-05-03 23:25 | 18.06084 | -45.94069 | 35120 ft | 498 kts | 42° |
| 2026-05-03 23:25 | 18.11056 | -45.89067 | 35119 ft | 498 kts | 42° |
| 2026-05-03 23:26 | 18.16103 | -45.84017 | 35114 ft | 498 kts | 42° |
| 2026-05-03 23:26 | 18.21102 | -45.79039 | 35121 ft | 498 kts | 41° |
| 2026-05-03 23:27 | 18.26142 | -45.74025 | 35117 ft | 498 kts | 42° |
| 2026-05-03 23:27 | 18.31178 | -45.69010 | 35120 ft | 499 kts | 42° |
| 2026-05-03 23:28 | 18.36210 | -45.63992 | 35124 ft | 499 kts | 42° |
| 2026-05-03 23:28 | 18.41251 | -45.58961 | 35124 ft | 499 kts | 42° |
| 2026-05-03 23:29 | 18.44862 | -45.55354 | 35124 ft | 499 kts | 42° |
| 2026-05-03 23:29 | 18.49898 | -45.50321 | 35122 ft | 499 kts | 42° |
| 2026-05-03 23:30 | 18.54934 | -45.45282 | 35123 ft | 499 kts | 42° |
| 2026-05-03 23:30 | 18.59970 | -45.40241 | 35123 ft | 499 kts | 42° |
| 2026-05-03 23:31 | 18.65005 | -45.35195 | 35124 ft | 499 kts | 42° |
| 2026-05-03 23:31 | 18.70039 | -45.30146 | 35124 ft | 500 kts | 42° |
| 2026-05-03 23:32 | 18.75076 | -45.25090 | 35127 ft | 500 kts | 42° |
| 2026-05-03 23:32 | 18.80112 | -45.20030 | 35126 ft | 500 kts | 42° |
| 2026-05-03 23:33 | 18.85144 | -45.14970 | 35125 ft | 500 kts | 42° |
| 2026-05-03 23:33 | 18.90177 | -45.09903 | 35131 ft | 500 kts | 42° |
| 2026-05-03 23:34 | 18.93874 | -45.06179 | 35129 ft | 500 kts | 42° |
| 2026-05-03 23:34 | 18.98906 | -45.01107 | 35129 ft | 500 kts | 42° |
| 2026-05-03 23:35 | 19.03994 | -44.96097 | 35128 ft | 500 kts | 40° |
| 2026-05-03 23:35 | 19.09165 | -44.91198 | 35128 ft | 500 kts | 40° |
| 2026-05-03 23:36 | 19.14346 | -44.86294 | 35126 ft | 500 kts | 40° |
| 2026-05-03 23:36 | 19.19511 | -44.81372 | 35129 ft | 500 kts | 40° |
| 2026-05-03 23:37 | 19.24667 | -44.76436 | 35127 ft | 500 kts | 40° |
| 2026-05-03 23:37 | 19.29829 | -44.71487 | 35129 ft | 500 kts | 40° |
| 2026-05-03 23:38 | 19.34985 | -44.66540 | 35128 ft | 501 kts | 40° |
| 2026-05-03 23:38 | 19.40147 | -44.61584 | 35129 ft | 501 kts | 40° |
| 2026-05-03 23:39 | 19.43886 | -44.57993 | 35129 ft | 501 kts | 40° |
| 2026-05-03 23:39 | 19.49047 | -44.53031 | 35126 ft | 501 kts | 40° |
| 2026-05-03 23:40 | 19.54215 | -44.48058 | 35129 ft | 502 kts | 40° |
| 2026-05-03 23:40 | 19.59376 | -44.43087 | 35130 ft | 502 kts | 40° |
| 2026-05-03 23:41 | 19.64547 | -44.38101 | 35129 ft | 502 kts | 40° |
| 2026-05-03 23:41 | 19.69713 | -44.33117 | 35130 ft | 502 kts | 40° |
| 2026-05-03 23:42 | 19.74880 | -44.28127 | 35133 ft | 502 kts | 40° |
| 2026-05-03 23:42 | 19.80048 | -44.23131 | 35128 ft | 503 kts | 40° |
| 2026-05-03 23:43 | 19.85223 | -44.18123 | 35128 ft | 503 kts | 40° |
| 2026-05-03 23:43 | 19.90392 | -44.13117 | 35134 ft | 503 kts | 39° |
| 2026-05-03 23:44 | 19.94155 | -44.09471 | 35128 ft | 503 kts | 39° |
| 2026-05-03 23:44 | 19.99330 | -44.04451 | 35129 ft | 504 kts | 39° |
| 2026-05-03 23:45 | 20.04501 | -43.99430 | 35131 ft | 504 kts | 39° |
| 2026-05-03 23:45 | 20.09682 | -43.94395 | 35127 ft | 504 kts | 39° |
| 2026-05-03 23:46 | 20.13985 | -43.90210 | 35131 ft | 505 kts | 39° |
| 2026-05-03 23:46 | 20.19170 | -43.85162 | 35131 ft | 505 kts | 39° |
| 2026-05-03 23:47 | 20.24355 | -43.80110 | 35132 ft | 505 kts | 39° |
| 2026-05-03 23:47 | 20.29541 | -43.75052 | 35136 ft | 506 kts | 39° |
| 2026-05-03 23:48 | 20.34728 | -43.69987 | 35133 ft | 506 kts | 39° |
| 2026-05-03 23:48 | 20.39922 | -43.64912 | 35131 ft | 507 kts | 39° |
| 2026-05-03 23:49 | 20.43689 | -43.61229 | 35130 ft | 507 kts | 39° |
| 2026-05-03 23:49 | 20.48887 | -43.56140 | 35133 ft | 507 kts | 39° |
| 2026-05-03 23:50 | 20.54083 | -43.51049 | 35132 ft | 508 kts | 39° |
| 2026-05-03 23:50 | 20.59286 | -43.45947 | 35129 ft | 508 kts | 39° |
| 2026-05-03 23:51 | 20.64487 | -43.40841 | 35131 ft | 508 kts | 39° |
| 2026-05-03 23:51 | 20.69650 | -43.35767 | 35131 ft | 508 kts | 39° |
| 2026-05-03 23:52 | 20.74855 | -43.30649 | 35137 ft | 508 kts | 39° |
| 2026-05-03 23:52 | 20.80055 | -43.25529 | 35134 ft | 508 kts | 39° |
| 2026-05-03 23:53 | 20.85256 | -43.20403 | 35134 ft | 509 kts | 39° |
| 2026-05-03 23:53 | 20.90454 | -43.15275 | 35131 ft | 509 kts | 39° |
| 2026-05-03 23:54 | 20.94233 | -43.11544 | 35131 ft | 509 kts | 39° |
| 2026-05-03 23:54 | 20.99433 | -43.06406 | 35136 ft | 509 kts | 39° |
| 2026-05-03 23:55 | 21.04637 | -43.01258 | 35135 ft | 509 kts | 39° |
| 2026-05-03 23:55 | 21.09839 | -42.96108 | 35134 ft | 509 kts | 39° |
| 2026-05-03 23:56 | 21.15042 | -42.90951 | 35141 ft | 510 kts | 39° |
| 2026-05-03 23:56 | 21.20240 | -42.85794 | 35128 ft | 510 kts | 39° |
| 2026-05-03 23:57 | 21.25445 | -42.80625 | 35136 ft | 510 kts | 39° |
| 2026-05-03 23:57 | 21.30649 | -42.75452 | 35145 ft | 510 kts | 38° |
| 2026-05-03 23:58 | 21.35851 | -42.70275 | 35135 ft | 510 kts | 38° |
| 2026-05-03 23:58 | 21.41021 | -42.65125 | 35141 ft | 510 kts | 38° |
| 2026-05-03 23:59 | 21.44955 | -42.61203 | 35143 ft | 510 kts | 38° |
| 2026-05-03 23:59 | 21.50156 | -42.56013 | 35141 ft | 511 kts | 38° |
| 2026-05-04 00:00 | 21.55308 | -42.50866 | 35139 ft | 511 kts | 38° |
| 2026-05-04 00:00 | 21.60554 | -42.45621 | 35137 ft | 511 kts | 38° |
| 2026-05-04 00:01 | 21.65756 | -42.40414 | 35137 ft | 510 kts | 38° |
| 2026-05-04 00:01 | 21.70947 | -42.35212 | 35145 ft | 510 kts | 38° |
| 2026-05-04 00:02 | 21.76141 | -42.30002 | 35141 ft | 510 kts | 38° |
| 2026-05-04 00:02 | 21.81326 | -42.24796 | 35140 ft | 510 kts | 38° |
| 2026-05-04 00:03 | 21.86514 | -42.19581 | 35142 ft | 510 kts | 38° |
| 2026-05-04 00:03 | 21.91694 | -42.14369 | 35142 ft | 510 kts | 38° |
| 2026-05-04 00:04 | 21.95530 | -42.10505 | 35144 ft | 509 kts | 38° |
| 2026-05-04 00:04 | 22.00705 | -42.05289 | 35143 ft | 509 kts | 38° |
| 2026-05-04 00:05 | 22.05868 | -42.00079 | 35142 ft | 509 kts | 38° |
| 2026-05-04 00:05 | 22.11030 | -41.94864 | 35141 ft | 508 kts | 38° |
| 2026-05-04 00:06 | 22.16147 | -41.89690 | 35141 ft | 507 kts | 38° |
| 2026-05-04 00:06 | 22.21287 | -41.84487 | 35137 ft | 507 kts | 38° |
| 2026-05-04 00:07 | 22.26423 | -41.79282 | 35140 ft | 506 kts | 38° |
| 2026-05-04 00:07 | 22.31548 | -41.74084 | 35141 ft | 505 kts | 38° |
| 2026-05-04 00:08 | 22.36664 | -41.68889 | 35136 ft | 505 kts | 38° |
| 2026-05-04 00:08 | 22.41776 | -41.63692 | 35142 ft | 504 kts | 38° |
| 2026-05-04 00:09 | 22.45543 | -41.59859 | 35141 ft | 503 kts | 38° |
| 2026-05-04 00:09 | 22.50637 | -41.54671 | 35137 ft | 503 kts | 39° |
| 2026-05-04 00:10 | 22.55723 | -41.49486 | 35139 ft | 502 kts | 39° |
| 2026-05-04 00:10 | 22.60796 | -41.44308 | 35134 ft | 501 kts | 39° |
| 2026-05-04 00:11 | 22.65860 | -41.39135 | 35144 ft | 500 kts | 39° |
| 2026-05-04 00:11 | 22.70914 | -41.33966 | 35129 ft | 499 kts | 39° |
| 2026-05-04 00:12 | 22.75960 | -41.28800 | 35134 ft | 499 kts | 39° |
| 2026-05-04 00:12 | 22.80996 | -41.23638 | 35150 ft | 498 kts | 39° |
| 2026-05-04 00:13 | 22.86030 | -41.18473 | 35137 ft | 498 kts | 39° |
| 2026-05-04 00:13 | 22.91066 | -41.13300 | 35137 ft | 498 kts | 39° |
| 2026-05-04 00:14 | 22.94851 | -41.09409 | 35138 ft | 498 kts | 39° |
| 2026-05-04 00:14 | 22.99887 | -41.04227 | 35138 ft | 499 kts | 39° |
| 2026-05-04 00:15 | 23.04919 | -40.99043 | 35136 ft | 499 kts | 39° |
| 2026-05-04 00:15 | 23.09951 | -40.93853 | 35137 ft | 499 kts | 39° |
| 2026-05-04 00:16 | 23.14981 | -40.88660 | 35141 ft | 499 kts | 39° |
| 2026-05-04 00:16 | 23.20006 | -40.83466 | 35138 ft | 499 kts | 39° |
| 2026-05-04 00:17 | 23.25027 | -40.78271 | 35138 ft | 498 kts | 39° |
| 2026-05-04 00:17 | 23.30039 | -40.73078 | 35132 ft | 497 kts | 39° |
| 2026-05-04 00:18 | 23.35042 | -40.67891 | 35132 ft | 496 kts | 39° |
| 2026-05-04 00:18 | 23.40034 | -40.62708 | 35138 ft | 495 kts | 39° |
| 2026-05-04 00:19 | 23.43783 | -40.58812 | 35133 ft | 494 kts | 39° |
| 2026-05-04 00:19 | 23.48752 | -40.53644 | 35134 ft | 493 kts | 40° |
| 2026-05-04 00:20 | 23.53677 | -40.48516 | 35136 ft | 492 kts | 39° |
| 2026-05-04 00:20 | 23.58616 | -40.43367 | 35133 ft | 491 kts | 40° |
| 2026-05-04 00:21 | 23.63539 | -40.38230 | 35134 ft | 490 kts | 39° |
| 2026-05-04 00:21 | 23.68457 | -40.33092 | 35134 ft | 489 kts | 39° |
| 2026-05-04 00:22 | 23.73301 | -40.28027 | 35131 ft | 489 kts | 39° |
| 2026-05-04 00:22 | 23.78213 | -40.22885 | 35131 ft | 489 kts | 39° |
| 2026-05-04 00:23 | 23.83094 | -40.17769 | 35133 ft | 490 kts | 39° |
| 2026-05-04 00:23 | 23.88053 | -40.12565 | 35136 ft | 491 kts | 39° |
| 2026-05-04 00:24 | 23.91786 | -40.08643 | 35135 ft | 492 kts | 40° |
| 2026-05-04 00:24 | 23.96727 | -40.03448 | 35134 ft | 494 kts | 39° |
| 2026-05-04 00:25 | 24.01623 | -39.98166 | 35128 ft | 496 kts | 42° |
| 2026-05-04 00:25 | 24.06319 | -39.92624 | 35135 ft | 497 kts | 43° |
| 2026-05-04 00:26 | 24.10948 | -39.87065 | 35130 ft | 497 kts | 43° |
| 2026-05-04 00:26 | 24.15619 | -39.81476 | 35130 ft | 498 kts | 43° |
| 2026-05-04 00:27 | 24.20303 | -39.75896 | 35132 ft | 498 kts | 43° |
| 2026-05-04 00:27 | 24.24997 | -39.70308 | 35130 ft | 498 kts | 43° |
| 2026-05-04 00:28 | 24.29688 | -39.64717 | 35134 ft | 499 kts | 43° |
| 2026-05-04 00:28 | 24.34386 | -39.59109 | 35132 ft | 499 kts | 43° |
| 2026-05-04 00:29 | 24.37905 | -39.54903 | 35131 ft | 500 kts | 43° |
| 2026-05-04 00:29 | 24.42606 | -39.49280 | 35130 ft | 500 kts | 43° |
| 2026-05-04 00:30 | 24.47305 | -39.43651 | 35128 ft | 501 kts | 43° |
| 2026-05-04 00:30 | 24.52012 | -39.38006 | 35127 ft | 501 kts | 43° |
| 2026-05-04 00:31 | 24.56719 | -39.32355 | 35127 ft | 501 kts | 42° |
| 2026-05-04 00:31 | 24.61418 | -39.26706 | 35124 ft | 501 kts | 42° |
| 2026-05-04 00:32 | 24.66118 | -39.21050 | 35124 ft | 501 kts | 42° |
| 2026-05-04 00:32 | 24.70809 | -39.15397 | 35124 ft | 500 kts | 42° |
| 2026-05-04 00:33 | 24.77831 | -39.06922 | 35128 ft | 499 kts | 42° |
| 2026-05-04 00:34 | 24.81712 | -39.02232 | 35125 ft | 498 kts | 41° |
| 2026-05-04 00:34 | 24.85888 | -38.97181 | 35112 ft | 498 kts | 41° |
| 2026-05-04 00:35 | 24.90512 | -38.91581 | 35130 ft | 497 kts | 41° |
| 2026-05-04 00:35 | 24.95159 | -38.85946 | 35123 ft | 496 kts | 41° |
| 2026-05-04 00:36 | 24.99796 | -38.80317 | 35120 ft | 496 kts | 41° |
| 2026-05-04 00:36 | 25.04429 | -38.74686 | 35115 ft | 495 kts | 41° |
| 2026-05-04 00:37 | 25.08273 | -38.70008 | 35120 ft | 495 kts | 41° |
| 2026-05-04 00:37 | 25.12896 | -38.64377 | 35120 ft | 495 kts | 41° |
| 2026-05-04 00:38 | 25.17516 | -38.58741 | 35120 ft | 495 kts | 41° |
| 2026-05-04 00:38 | 25.22128 | -38.53110 | 35120 ft | 494 kts | 41° |
| 2026-05-04 00:39 | 25.26737 | -38.47475 | 35118 ft | 494 kts | 41° |
| 2026-05-04 00:39 | 25.30049 | -38.43420 | 35115 ft | 494 kts | 41° |
| 2026-05-04 00:40 | 25.34644 | -38.37790 | 35113 ft | 493 kts | 41° |
| 2026-05-04 00:40 | 25.39231 | -38.32164 | 35113 ft | 492 kts | 41° |
| 2026-05-04 00:41 | 25.43814 | -38.26534 | 35118 ft | 492 kts | 41° |
| 2026-05-04 00:41 | 25.48380 | -38.20918 | 35115 ft | 491 kts | 41° |
| 2026-05-04 00:42 | 25.52941 | -38.15303 | 35110 ft | 490 kts | 41° |
| 2026-05-04 00:42 | 25.57489 | -38.09696 | 35110 ft | 489 kts | 41° |
| 2026-05-04 00:43 | 25.62029 | -38.04092 | 35116 ft | 488 kts | 41° |
| 2026-05-04 00:43 | 25.66560 | -37.98493 | 35108 ft | 487 kts | 41° |
| 2026-05-04 00:44 | 25.71077 | -37.92904 | 35115 ft | 487 kts | 41° |
| 2026-05-04 00:44 | 25.74301 | -37.88910 | 35107 ft | 486 kts | 41° |
| 2026-05-04 00:45 | 25.78807 | -37.83323 | 35111 ft | 486 kts | 41° |
| 2026-05-04 00:45 | 25.83308 | -37.77736 | 35109 ft | 485 kts | 41° |
| 2026-05-04 00:46 | 25.87808 | -37.72143 | 35108 ft | 485 kts | 41° |
| 2026-05-04 00:46 | 25.92302 | -37.66549 | 35106 ft | 485 kts | 41° |
| 2026-05-04 00:47 | 25.96797 | -37.60949 | 35102 ft | 485 kts | 41° |
| 2026-05-04 00:47 | 26.01287 | -37.55346 | 35100 ft | 485 kts | 41° |
| 2026-05-04 00:48 | 26.05777 | -37.49737 | 35099 ft | 485 kts | 41° |
| 2026-05-04 00:48 | 26.10262 | -37.44127 | 35098 ft | 485 kts | 41° |
| 2026-05-04 00:49 | 26.14745 | -37.38513 | 35100 ft | 485 kts | 41° |
| 2026-05-04 00:49 | 26.18032 | -37.34392 | 35100 ft | 485 kts | 41° |
| 2026-05-04 00:50 | 26.22512 | -37.28770 | 35099 ft | 485 kts | 41° |
| 2026-05-04 00:50 | 26.26984 | -37.23150 | 35098 ft | 485 kts | 41° |
| 2026-05-04 00:51 | 26.31455 | -37.17524 | 35096 ft | 484 kts | 41° |
| 2026-05-04 00:51 | 26.35887 | -37.11940 | 35095 ft | 484 kts | 41° |
| 2026-05-04 00:52 | 26.40344 | -37.06317 | 35093 ft | 484 kts | 40° |
| 2026-05-04 00:52 | 26.44795 | -37.00696 | 35096 ft | 483 kts | 40° |
| 2026-05-04 00:53 | 26.49242 | -36.95072 | 35093 ft | 483 kts | 40° |
| 2026-05-04 00:53 | 26.53685 | -36.89447 | 35094 ft | 483 kts | 40° |
| 2026-05-04 00:54 | 26.58120 | -36.83824 | 35092 ft | 482 kts | 40° |
| 2026-05-04 00:54 | 26.61306 | -36.79781 | 35082 ft | 482 kts | 40° |
| 2026-05-04 00:55 | 26.65736 | -36.74152 | 35088 ft | 482 kts | 40° |
| 2026-05-04 00:55 | 26.70167 | -36.68516 | 35089 ft | 483 kts | 40° |
| 2026-05-04 00:56 | 26.74594 | -36.62876 | 35088 ft | 483 kts | 40° |
| 2026-05-04 00:56 | 26.79025 | -36.57224 | 35085 ft | 483 kts | 40° |
| 2026-05-04 00:57 | 26.83451 | -36.51572 | 35082 ft | 483 kts | 40° |
| 2026-05-04 00:57 | 26.87876 | -36.45912 | 35085 ft | 483 kts | 40° |
| 2026-05-04 00:58 | 26.92294 | -36.40255 | 35082 ft | 482 kts | 40° |
| 2026-05-04 00:58 | 26.96709 | -36.34595 | 35082 ft | 482 kts | 40° |
| 2026-05-04 00:59 | 27.01122 | -36.28930 | 35079 ft | 482 kts | 40° |
| 2026-05-04 00:59 | 27.04279 | -36.24872 | 35081 ft | 482 kts | 40° |
| 2026-05-04 01:00 | 27.08683 | -36.19206 | 35076 ft | 481 kts | 40° |
| 2026-05-04 01:00 | 27.13051 | -36.13579 | 35082 ft | 481 kts | 40° |
| 2026-05-04 01:01 | 27.17441 | -36.07915 | 35068 ft | 481 kts | 40° |
| 2026-05-04 01:01 | 27.21829 | -36.02248 | 35073 ft | 481 kts | 40° |
| 2026-05-04 01:02 | 27.26214 | -35.96577 | 35072 ft | 481 kts | 40° |
| 2026-05-04 01:02 | 27.30596 | -35.90903 | 35075 ft | 481 kts | 40° |
| 2026-05-04 01:03 | 27.34978 | -35.85220 | 35068 ft | 481 kts | 40° |
| 2026-05-04 01:03 | 27.39361 | -35.79530 | 35069 ft | 481 kts | 40° |
| 2026-05-04 01:04 | 27.43745 | -35.73830 | 35065 ft | 482 kts | 41° |
| 2026-05-04 01:04 | 27.46959 | -35.69646 | 35070 ft | 482 kts | 41° |
| 2026-05-04 01:05 | 27.51348 | -35.63926 | 35068 ft | 483 kts | 41° |
| 2026-05-04 01:05 | 27.55740 | -35.58195 | 35061 ft | 483 kts | 41° |
| 2026-05-04 01:06 | 27.60130 | -35.52458 | 35061 ft | 483 kts | 41° |
| 2026-05-04 01:06 | 27.64522 | -35.46712 | 35061 ft | 484 kts | 41° |
| 2026-05-04 01:07 | 27.68915 | -35.40957 | 35057 ft | 484 kts | 41° |
| 2026-05-04 01:07 | 27.73307 | -35.35194 | 35062 ft | 484 kts | 41° |
| 2026-05-04 01:08 | 27.77697 | -35.29426 | 35062 ft | 485 kts | 41° |
| 2026-05-04 01:08 | 27.82091 | -35.23646 | 35056 ft | 485 kts | 41° |
| 2026-05-04 01:09 | 27.86483 | -35.17860 | 35054 ft | 485 kts | 41° |
| 2026-05-04 01:09 | 27.89745 | -35.13557 | 35052 ft | 485 kts | 41° |
| 2026-05-04 01:10 | 27.94135 | -35.07760 | 35056 ft | 485 kts | 41° |
| 2026-05-04 01:10 | 27.98521 | -35.01961 | 35056 ft | 485 kts | 41° |
| 2026-05-04 01:11 | 28.02676 | -34.95952 | 35050 ft | 491 kts | 45° |
| 2026-05-04 01:11 | 28.06645 | -34.89662 | 35049 ft | 491 kts | 46° |
| 2026-05-04 01:12 | 28.10601 | -34.83351 | 35045 ft | 491 kts | 46° |
| 2026-05-04 01:12 | 28.14570 | -34.77057 | 35056 ft | 491 kts | 46° |
| 2026-05-04 01:13 | 28.18545 | -34.70773 | 35034 ft | 491 kts | 46° |
| 2026-05-04 01:13 | 28.22526 | -34.64478 | 35037 ft | 491 kts | 46° |
| 2026-05-04 01:14 | 28.26501 | -34.58179 | 35039 ft | 491 kts | 46° |
| 2026-05-04 01:14 | 28.29354 | -34.53653 | 35035 ft | 491 kts | 46° |
| 2026-05-04 01:15 | 28.33329 | -34.47338 | 35034 ft | 492 kts | 46° |
| 2026-05-04 01:15 | 28.37308 | -34.41007 | 35034 ft | 493 kts | 47° |
| 2026-05-04 01:16 | 28.41287 | -34.34665 | 35034 ft | 494 kts | 47° |
| 2026-05-04 01:16 | 28.45273 | -34.28304 | 35032 ft | 494 kts | 47° |
| 2026-05-04 01:17 | 28.49263 | -34.21926 | 35032 ft | 495 kts | 48° |
| 2026-05-04 01:17 | 28.53253 | -34.15539 | 35032 ft | 496 kts | 48° |
| 2026-05-04 01:18 | 28.57248 | -34.09133 | 35036 ft | 497 kts | 49° |
| 2026-05-04 01:18 | 28.61243 | -34.02718 | 35032 ft | 497 kts | 49° |
| 2026-05-04 01:19 | 28.65241 | -33.96289 | 35026 ft | 497 kts | 50° |
| 2026-05-04 01:19 | 28.68168 | -33.91576 | 35024 ft | 498 kts | 50° |
| 2026-05-04 01:20 | 28.72136 | -33.85178 | 35022 ft | 498 kts | 50° |
| 2026-05-04 01:20 | 28.76128 | -33.78731 | 35016 ft | 498 kts | 51° |
| 2026-05-04 01:21 | 28.80118 | -33.72278 | 35021 ft | 498 kts | 51° |
| 2026-05-04 01:21 | 28.84103 | -33.65824 | 35019 ft | 498 kts | 51° |
| 2026-05-04 01:22 | 28.88087 | -33.59360 | 35018 ft | 498 kts | 52° |
| 2026-05-04 01:22 | 28.92064 | -33.52899 | 35022 ft | 498 kts | 52° |
| 2026-05-04 01:23 | 28.96037 | -33.46433 | 35017 ft | 497 kts | 52° |
| 2026-05-04 01:23 | 29.00004 | -33.39968 | 35015 ft | 497 kts | 52° |
| 2026-05-04 01:24 | 29.03966 | -33.33499 | 35017 ft | 496 kts | 53° |
| 2026-05-04 01:24 | 29.06932 | -33.28652 | 35013 ft | 496 kts | 53° |
| 2026-05-04 01:25 | 29.10883 | -33.22184 | 35018 ft | 496 kts | 53° |
| 2026-05-04 01:25 | 29.14829 | -33.15717 | 35014 ft | 496 kts | 53° |
| 2026-05-04 01:26 | 29.18770 | -33.09246 | 35015 ft | 496 kts | 53° |
| 2026-05-04 01:26 | 29.22041 | -33.03867 | 35014 ft | 495 kts | 53° |
| 2026-05-04 01:27 | 29.25974 | -32.97391 | 35016 ft | 495 kts | 53° |
| 2026-05-04 01:27 | 29.29907 | -32.90905 | 35015 ft | 495 kts | 54° |
| 2026-05-04 01:28 | 29.33834 | -32.84420 | 35016 ft | 495 kts | 54° |
| 2026-05-04 01:28 | 29.37760 | -32.77924 | 35015 ft | 495 kts | 54° |
| 2026-05-04 01:29 | 29.41682 | -32.71426 | 35012 ft | 495 kts | 54° |
| 2026-05-04 01:29 | 29.44616 | -32.66558 | 35008 ft | 495 kts | 54° |
| 2026-05-04 01:30 | 29.48528 | -32.60058 | 35009 ft | 495 kts | 54° |
| 2026-05-04 01:30 | 29.52438 | -32.53550 | 35010 ft | 495 kts | 54° |
| 2026-05-04 01:31 | 29.56343 | -32.47042 | 35014 ft | 495 kts | 54° |
| 2026-05-04 01:31 | 29.60247 | -32.40524 | 35001 ft | 495 kts | 54° |
| 2026-05-04 01:32 | 29.64147 | -32.34003 | 35001 ft | 495 kts | 54° |
| 2026-05-04 01:32 | 29.68040 | -32.27484 | 35012 ft | 495 kts | 55° |
| 2026-05-04 01:33 | 29.71902 | -32.21005 | 35015 ft | 494 kts | 55° |
| 2026-05-04 01:33 | 29.75789 | -32.14474 | 35013 ft | 494 kts | 55° |
| 2026-05-04 01:34 | 29.79672 | -32.07939 | 34999 ft | 494 kts | 55° |
| 2026-05-04 01:34 | 29.82564 | -32.03066 | 35008 ft | 494 kts | 55° |
| 2026-05-04 01:35 | 29.86441 | -31.96524 | 35001 ft | 494 kts | 55° |
| 2026-05-04 01:35 | 29.90314 | -31.89978 | 35000 ft | 494 kts | 55° |
| 2026-05-04 01:36 | 29.94184 | -31.83426 | 35005 ft | 494 kts | 55° |
| 2026-05-04 01:36 | 29.98049 | -31.76872 | 35004 ft | 494 kts | 55° |
| 2026-05-04 01:37 | 30.01908 | -31.70318 | 34999 ft | 494 kts | 56° |
| 2026-05-04 01:37 | 30.05765 | -31.63757 | 35008 ft | 494 kts | 56° |
| 2026-05-04 01:38 | 30.09619 | -31.57189 | 34999 ft | 494 kts | 56° |
| 2026-05-04 01:38 | 30.13468 | -31.50621 | 35001 ft | 494 kts | 56° |
| 2026-05-04 01:39 | 30.17313 | -31.44048 | 35000 ft | 494 kts | 56° |
| 2026-05-04 01:39 | 30.20123 | -31.39237 | 35001 ft | 494 kts | 56° |
| 2026-05-04 01:40 | 30.23963 | -31.32655 | 35007 ft | 493 kts | 56° |
| 2026-05-04 01:40 | 30.27770 | -31.26118 | 35001 ft | 493 kts | 56° |
| 2026-05-04 01:41 | 30.31597 | -31.19535 | 35002 ft | 493 kts | 56° |
| 2026-05-04 01:41 | 30.35421 | -31.12946 | 35012 ft | 493 kts | 56° |
| 2026-05-04 01:42 | 30.39237 | -31.06361 | 35002 ft | 493 kts | 57° |
| 2026-05-04 01:42 | 30.43050 | -30.99771 | 35002 ft | 492 kts | 57° |
| 2026-05-04 01:43 | 30.46860 | -30.93175 | 35000 ft | 492 kts | 57° |
| 2026-05-04 01:43 | 30.50667 | -30.86573 | 34996 ft | 492 kts | 57° |
| 2026-05-04 01:44 | 30.54467 | -30.79971 | 35004 ft | 492 kts | 57° |
| 2026-05-04 01:44 | 30.57252 | -30.75126 | 34994 ft | 492 kts | 57° |
| 2026-05-04 01:45 | 30.61046 | -30.68516 | 35011 ft | 492 kts | 57° |
| 2026-05-04 01:45 | 30.66734 | -30.58587 | 35015 ft | 492 kts | 57° |
| 2026-05-04 01:46 | 30.70464 | -30.52061 | 34998 ft | 492 kts | 57° |
| 2026-05-04 01:46 | 30.74308 | -30.45326 | 35000 ft | 493 kts | 57° |
| 2026-05-04 01:47 | 30.78093 | -30.38682 | 35001 ft | 493 kts | 57° |
| 2026-05-04 01:47 | 30.81874 | -30.32034 | 35014 ft | 493 kts | 57° |
| 2026-05-04 01:48 | 30.85650 | -30.25382 | 35013 ft | 493 kts | 58° |
| 2026-05-04 01:48 | 30.89428 | -30.18717 | 35001 ft | 493 kts | 58° |
| 2026-05-04 01:49 | 30.92177 | -30.13859 | 35000 ft | 493 kts | 58° |
| 2026-05-04 01:49 | 30.95950 | -30.07183 | 35013 ft | 493 kts | 58° |
| 2026-05-04 01:50 | 30.99797 | -30.00562 | 35015 ft | 494 kts | 53° |
| 2026-05-04 01:50 | 31.04426 | -29.94640 | 35017 ft | 495 kts | 46° |
| 2026-05-04 01:51 | 31.09334 | -29.88998 | 35003 ft | 495 kts | 45° |
| 2026-05-04 01:51 | 31.14231 | -29.83342 | 35002 ft | 496 kts | 46° |
| 2026-05-04 01:52 | 31.19104 | -29.77650 | 35005 ft | 496 kts | 46° |
| 2026-05-04 01:52 | 31.23965 | -29.71937 | 35014 ft | 495 kts | 46° |
| 2026-05-04 01:53 | 31.28816 | -29.66222 | 35018 ft | 495 kts | 46° |
| 2026-05-04 01:53 | 31.33667 | -29.60502 | 35003 ft | 495 kts | 46° |
| 2026-05-04 01:54 | 31.37154 | -29.56386 | 35005 ft | 495 kts | 46° |
| 2026-05-04 01:54 | 31.41997 | -29.50662 | 35018 ft | 495 kts | 46° |
| 2026-05-04 01:55 | 31.46840 | -29.44928 | 35018 ft | 495 kts | 46° |
| 2026-05-04 01:55 | 31.51676 | -29.39195 | 35005 ft | 495 kts | 46° |
| 2026-05-04 01:56 | 31.56515 | -29.33449 | 35002 ft | 495 kts | 46° |
| 2026-05-04 01:56 | 31.61318 | -29.27736 | 35007 ft | 495 kts | 46° |
| 2026-05-04 01:57 | 31.66150 | -29.21980 | 35021 ft | 495 kts | 46° |
| 2026-05-04 01:57 | 31.70985 | -29.16212 | 35026 ft | 495 kts | 46° |
| 2026-05-04 01:58 | 31.75817 | -29.10438 | 35007 ft | 496 kts | 46° |
| 2026-05-04 01:58 | 31.80649 | -29.04655 | 35016 ft | 496 kts | 46° |
| 2026-05-04 01:59 | 31.84235 | -29.00356 | 35029 ft | 497 kts | 46° |
| 2026-05-04 01:59 | 31.89078 | -28.94544 | 35007 ft | 497 kts | 46° |
| 2026-05-04 02:00 | 31.93919 | -28.88724 | 35015 ft | 498 kts | 46° |
| 2026-05-04 02:00 | 31.98765 | -28.82889 | 35031 ft | 498 kts | 46° |
| 2026-05-04 02:01 | 32.03613 | -28.77043 | 35030 ft | 499 kts | 46° |
| 2026-05-04 02:01 | 32.08460 | -28.71189 | 35030 ft | 499 kts | 46° |
| 2026-05-04 02:02 | 32.13312 | -28.65318 | 35019 ft | 499 kts | 46° |
| 2026-05-04 02:02 | 32.18157 | -28.59447 | 35024 ft | 500 kts | 46° |
| 2026-05-04 02:03 | 32.23003 | -28.53564 | 35036 ft | 500 kts | 46° |
| 2026-05-04 02:03 | 32.27852 | -28.47670 | 35038 ft | 500 kts | 46° |
| 2026-05-04 02:04 | 32.31388 | -28.43364 | 35024 ft | 501 kts | 46° |
| 2026-05-04 02:04 | 32.36243 | -28.37444 | 35025 ft | 501 kts | 46° |
| 2026-05-04 02:05 | 32.41098 | -28.31515 | 35031 ft | 502 kts | 46° |
| 2026-05-04 02:05 | 32.45955 | -28.25574 | 35053 ft | 502 kts | 46° |
| 2026-05-04 02:06 | 32.50779 | -28.19663 | 35041 ft | 503 kts | 46° |
| 2026-05-04 02:06 | 32.55673 | -28.13656 | 35038 ft | 503 kts | 46° |
| 2026-05-04 02:07 | 32.60503 | -28.07719 | 35046 ft | 504 kts | 46° |
| 2026-05-04 02:07 | 32.65371 | -28.01724 | 35051 ft | 505 kts | 46° |
| 2026-05-04 02:08 | 32.70244 | -27.95714 | 35050 ft | 505 kts | 46° |
| 2026-05-04 02:08 | 32.75116 | -27.89695 | 35046 ft | 505 kts | 46° |
| 2026-05-04 02:09 | 32.78757 | -27.85189 | 35050 ft | 505 kts | 46° |
| 2026-05-04 02:09 | 32.83618 | -27.79164 | 35056 ft | 505 kts | 46° |
| 2026-05-04 02:10 | 32.88483 | -27.73126 | 35057 ft | 505 kts | 46° |
| 2026-05-04 02:10 | 32.93342 | -27.67084 | 35070 ft | 505 kts | 46° |
| 2026-05-04 02:11 | 32.98200 | -27.61033 | 35073 ft | 505 kts | 46° |
| 2026-05-04 02:11 | 33.03053 | -27.54979 | 35067 ft | 505 kts | 46° |
| 2026-05-04 02:12 | 33.07907 | -27.48912 | 35067 ft | 506 kts | 46° |
| 2026-05-04 02:12 | 33.12755 | -27.42843 | 35083 ft | 506 kts | 46° |
| 2026-05-04 02:13 | 33.17577 | -27.36796 | 35086 ft | 506 kts | 46° |
| 2026-05-04 02:13 | 33.22429 | -27.30701 | 35090 ft | 506 kts | 46° |
| 2026-05-04 02:14 | 33.26051 | -27.26145 | 35077 ft | 507 kts | 46° |
| 2026-05-04 02:14 | 33.30904 | -27.20030 | 35092 ft | 507 kts | 46° |
| 2026-05-04 02:15 | 33.35756 | -27.13905 | 35098 ft | 507 kts | 46° |
| 2026-05-04 02:15 | 33.40607 | -27.07773 | 35081 ft | 507 kts | 46° |
| 2026-05-04 02:16 | 33.45452 | -27.01636 | 35086 ft | 508 kts | 46° |
| 2026-05-04 02:16 | 33.50299 | -26.95486 | 35102 ft | 508 kts | 46° |
| 2026-05-04 02:17 | 33.54325 | -26.90370 | 35107 ft | 507 kts | 46° |
| 2026-05-04 02:17 | 33.59168 | -26.84206 | 35094 ft | 507 kts | 46° |
| 2026-05-04 02:18 | 33.64001 | -26.78043 | 35099 ft | 507 kts | 46° |
| 2026-05-04 02:18 | 33.68828 | -26.71878 | 35123 ft | 507 kts | 46° |
| 2026-05-04 02:19 | 33.72450 | -26.67245 | 35108 ft | 506 kts | 46° |
| 2026-05-04 02:19 | 33.77264 | -26.61076 | 35108 ft | 506 kts | 46° |
| 2026-05-04 02:20 | 33.82074 | -26.54902 | 35110 ft | 505 kts | 46° |
| 2026-05-04 02:20 | 33.86877 | -26.48726 | 35116 ft | 505 kts | 46° |
| 2026-05-04 02:21 | 33.91676 | -26.42546 | 35134 ft | 505 kts | 46° |
| 2026-05-04 02:21 | 33.96468 | -26.36362 | 35126 ft | 505 kts | 46° |
| 2026-05-04 02:22 | 34.01258 | -26.30171 | 35124 ft | 505 kts | 46° |
| 2026-05-04 02:22 | 34.06050 | -26.23966 | 35126 ft | 505 kts | 46° |
| 2026-05-04 02:23 | 34.10834 | -26.17759 | 35129 ft | 505 kts | 46° |
| 2026-05-04 02:23 | 34.15614 | -26.11548 | 35135 ft | 505 kts | 46° |
| 2026-05-04 02:24 | 34.19199 | -26.06882 | 35135 ft | 505 kts | 46° |
| 2026-05-04 02:24 | 34.23946 | -26.00694 | 35138 ft | 505 kts | 46° |
| 2026-05-04 02:25 | 34.28719 | -25.94460 | 35142 ft | 506 kts | 46° |
| 2026-05-04 02:25 | 34.33497 | -25.88210 | 35145 ft | 506 kts | 46° |
| 2026-05-04 02:26 | 34.38265 | -25.81960 | 35145 ft | 506 kts | 46° |
| 2026-05-04 02:26 | 34.43034 | -25.75698 | 35147 ft | 505 kts | 46° |
| 2026-05-04 02:27 | 34.47799 | -25.69431 | 35151 ft | 505 kts | 46° |
| 2026-05-04 02:27 | 34.52555 | -25.63162 | 35148 ft | 505 kts | 46° |
| 2026-05-04 02:28 | 34.57310 | -25.56885 | 35153 ft | 505 kts | 46° |
| 2026-05-04 02:28 | 34.62063 | -25.50599 | 35156 ft | 505 kts | 46° |
| 2026-05-04 02:29 | 34.64440 | -25.47451 | 35292 ft | 507 kts | 46° |
| 2026-05-04 02:29 | 34.65558 | -25.45969 | 35428 ft | 507 kts | 46° |
| 2026-05-04 02:29 | 34.67937 | -25.42813 | 35804 ft | 504 kts | 46° |
| 2026-05-04 02:29 | 34.70299 | -25.39678 | 36187 ft | 502 kts | 46° |
| 2026-05-04 02:30 | 34.72646 | -25.36559 | 36538 ft | 500 kts | 46° |
| 2026-05-04 02:30 | 34.74992 | -25.33439 | 36836 ft | 499 kts | 46° |
| 2026-05-04 02:30 | 34.77336 | -25.30319 | 37073 ft | 500 kts | 46° |
| 2026-05-04 02:30 | 34.79685 | -25.27190 | 37127 ft | 502 kts | 46° |
| 2026-05-04 02:31 | 34.84335 | -25.20986 | 37159 ft | 501 kts | 46° |
| 2026-05-04 02:31 | 34.89064 | -25.14664 | 37160 ft | 497 kts | 46° |
| 2026-05-04 02:32 | 34.93671 | -25.08496 | 37171 ft | 496 kts | 46° |
| 2026-05-04 02:32 | 34.98314 | -25.02268 | 37172 ft | 495 kts | 46° |
| 2026-05-04 02:33 | 35.02774 | -24.95850 | 37176 ft | 497 kts | 50° |
| 2026-05-04 02:33 | 35.07035 | -24.89190 | 37178 ft | 499 kts | 51° |
| 2026-05-04 02:34 | 35.10093 | -24.84367 | 37180 ft | 500 kts | 51° |
| 2026-05-04 02:34 | 35.14370 | -24.77650 | 37177 ft | 502 kts | 51° |
| 2026-05-04 02:35 | 35.18676 | -24.70914 | 37183 ft | 503 kts | 50° |
| 2026-05-04 02:35 | 35.22989 | -24.64165 | 37184 ft | 504 kts | 50° |
| 2026-05-04 02:36 | 35.27309 | -24.57394 | 37181 ft | 505 kts | 50° |
| 2026-05-04 02:36 | 35.31623 | -24.50614 | 37188 ft | 505 kts | 50° |
| 2026-05-04 02:37 | 35.35936 | -24.43823 | 37189 ft | 505 kts | 50° |
| 2026-05-04 02:37 | 35.40242 | -24.37029 | 37187 ft | 505 kts | 50° |
| 2026-05-04 02:38 | 35.44544 | -24.30228 | 37185 ft | 505 kts | 50° |
| 2026-05-04 02:38 | 35.48813 | -24.23467 | 37193 ft | 505 kts | 50° |
| 2026-05-04 02:39 | 35.51908 | -24.18558 | 37190 ft | 505 kts | 50° |
| 2026-05-04 02:39 | 35.56197 | -24.11740 | 37192 ft | 505 kts | 50° |
| 2026-05-04 02:40 | 35.60485 | -24.04912 | 37202 ft | 505 kts | 50° |
| 2026-05-04 02:40 | 35.64777 | -23.98065 | 37194 ft | 506 kts | 50° |
| 2026-05-04 02:41 | 35.69067 | -23.91208 | 37199 ft | 506 kts | 50° |
| 2026-05-04 02:41 | 35.73357 | -23.84335 | 37199 ft | 506 kts | 50° |
| 2026-05-04 02:42 | 35.77642 | -23.77458 | 37202 ft | 507 kts | 50° |
| 2026-05-04 02:42 | 35.81930 | -23.70563 | 37199 ft | 507 kts | 50° |
| 2026-05-04 02:43 | 35.86217 | -23.63654 | 37202 ft | 507 kts | 50° |
| 2026-05-04 02:43 | 35.90497 | -23.56744 | 37199 ft | 507 kts | 50° |
| 2026-05-04 02:44 | 35.93634 | -23.51670 | 37205 ft | 507 kts | 50° |
| 2026-05-04 02:44 | 35.97907 | -23.44746 | 37204 ft | 507 kts | 50° |
| 2026-05-04 02:45 | 36.02173 | -23.37819 | 37208 ft | 507 kts | 50° |
| 2026-05-04 02:45 | 36.06437 | -23.30883 | 37206 ft | 507 kts | 50° |
| 2026-05-04 02:46 | 36.10693 | -23.23945 | 37210 ft | 506 kts | 50° |
| 2026-05-04 02:46 | 36.14945 | -23.17000 | 37211 ft | 506 kts | 50° |
| 2026-05-04 02:47 | 36.19192 | -23.10048 | 37209 ft | 506 kts | 50° |
| 2026-05-04 02:47 | 36.23433 | -23.03093 | 37213 ft | 506 kts | 50° |
| 2026-05-04 02:48 | 36.27669 | -22.96132 | 37211 ft | 506 kts | 50° |
| 2026-05-04 02:48 | 36.31900 | -22.89164 | 37196 ft | 506 kts | 50° |
| 2026-05-04 02:49 | 36.35066 | -22.83940 | 37218 ft | 506 kts | 50° |
| 2026-05-04 02:49 | 36.39289 | -22.76961 | 37223 ft | 506 kts | 50° |
| 2026-05-04 02:50 | 36.43508 | -22.69976 | 37204 ft | 506 kts | 50° |
| 2026-05-04 02:50 | 36.47721 | -22.62984 | 37210 ft | 506 kts | 50° |
| 2026-05-04 02:51 | 36.51904 | -22.56029 | 37217 ft | 506 kts | 50° |
| 2026-05-04 02:51 | 36.56111 | -22.49018 | 37218 ft | 506 kts | 51° |
| 2026-05-04 02:52 | 36.60238 | -22.42128 | 37212 ft | 505 kts | 51° |
| 2026-05-04 02:52 | 36.64431 | -22.35111 | 37220 ft | 505 kts | 51° |
| 2026-05-04 02:53 | 36.68617 | -22.28093 | 37217 ft | 505 kts | 51° |
| 2026-05-04 02:53 | 36.72800 | -22.21066 | 37218 ft | 504 kts | 51° |
| 2026-05-04 02:54 | 36.75825 | -22.15974 | 37223 ft | 504 kts | 51° |
| 2026-05-04 02:54 | 36.79995 | -22.08943 | 37219 ft | 504 kts | 51° |
| 2026-05-04 02:55 | 36.86236 | -21.98394 | 37222 ft | 503 kts | 51° |
| 2026-05-04 02:56 | 36.90383 | -21.91364 | 37218 ft | 502 kts | 51° |
| 2026-05-04 02:56 | 36.94518 | -21.84342 | 37225 ft | 501 kts | 51° |
| 2026-05-04 02:57 | 36.98642 | -21.77323 | 37220 ft | 500 kts | 51° |
| 2026-05-04 02:57 | 37.02750 | -21.70317 | 37221 ft | 499 kts | 51° |
| 2026-05-04 02:58 | 37.06846 | -21.63316 | 37223 ft | 498 kts | 52° |
| 2026-05-04 02:58 | 37.10929 | -21.56324 | 37223 ft | 497 kts | 52° |
| 2026-05-04 02:59 | 37.14996 | -21.49343 | 37224 ft | 496 kts | 52° |
| 2026-05-04 02:59 | 37.18033 | -21.44121 | 37221 ft | 495 kts | 52° |
| 2026-05-04 03:00 | 37.22080 | -21.37152 | 37223 ft | 494 kts | 52° |
| 2026-05-04 03:00 | 37.26118 | -21.30182 | 37221 ft | 493 kts | 52° |
| 2026-05-04 03:01 | 37.30096 | -21.23300 | 37224 ft | 493 kts | 52° |
| 2026-05-04 03:01 | 37.34118 | -21.16329 | 37226 ft | 493 kts | 52° |
| 2026-05-04 03:02 | 37.38133 | -21.09356 | 37224 ft | 492 kts | 52° |
| 2026-05-04 03:02 | 37.42143 | -21.02376 | 37228 ft | 492 kts | 52° |
| 2026-05-04 03:03 | 37.46150 | -20.95387 | 37224 ft | 492 kts | 52° |
| 2026-05-04 03:03 | 37.50122 | -20.88445 | 37222 ft | 492 kts | 52° |
| 2026-05-04 03:04 | 37.53466 | -20.82590 | 37226 ft | 491 kts | 52° |
| 2026-05-04 03:04 | 37.57097 | -20.76218 | 37230 ft | 491 kts | 52° |
| 2026-05-04 03:05 | 37.61075 | -20.69226 | 37223 ft | 490 kts | 52° |
| 2026-05-04 03:05 | 37.65042 | -20.62238 | 37224 ft | 490 kts | 52° |
| 2026-05-04 03:06 | 37.68997 | -20.55254 | 37230 ft | 489 kts | 52° |
| 2026-05-04 03:06 | 37.72280 | -20.49447 | 37228 ft | 488 kts | 52° |
| 2026-05-04 03:07 | 37.76217 | -20.42471 | 37212 ft | 488 kts | 52° |
| 2026-05-04 03:07 | 37.80149 | -20.35488 | 37213 ft | 487 kts | 52° |
| 2026-05-04 03:08 | 37.84074 | -20.28501 | 37233 ft | 487 kts | 52° |
| 2026-05-04 03:08 | 37.87994 | -20.21510 | 37222 ft | 487 kts | 52° |
| 2026-05-04 03:09 | 37.91910 | -20.14510 | 37224 ft | 487 kts | 52° |
| 2026-05-04 03:09 | 37.94729 | -20.09462 | 37222 ft | 487 kts | 52° |
| 2026-05-04 03:10 | 37.98650 | -20.02468 | 37222 ft | 486 kts | 50° |
| 2026-05-04 03:10 | 38.03169 | -19.96168 | 37219 ft | 481 kts | 40° |
| 2026-05-04 03:11 | 38.08147 | -19.90489 | 37226 ft | 481 kts | 39° |
| 2026-05-04 03:11 | 38.13136 | -19.84826 | 37223 ft | 481 kts | 39° |
| 2026-05-04 03:12 | 38.18099 | -19.79128 | 37225 ft | 481 kts | 39° |
| 2026-05-04 03:12 | 38.23042 | -19.73405 | 37224 ft | 481 kts | 39° |
| 2026-05-04 03:13 | 38.27981 | -19.67667 | 37223 ft | 480 kts | 39° |
| 2026-05-04 03:13 | 38.32878 | -19.61967 | 37224 ft | 480 kts | 39° |
| 2026-05-04 03:14 | 38.37801 | -19.56228 | 37225 ft | 479 kts | 39° |
| 2026-05-04 03:14 | 38.41469 | -19.51946 | 37218 ft | 479 kts | 39° |
| 2026-05-04 03:15 | 38.46374 | -19.46210 | 37219 ft | 478 kts | 39° |
| 2026-05-04 03:15 | 38.51273 | -19.40470 | 37223 ft | 478 kts | 39° |
| 2026-05-04 03:16 | 38.56166 | -19.34727 | 37221 ft | 477 kts | 39° |
| 2026-05-04 03:16 | 38.61052 | -19.28980 | 37222 ft | 477 kts | 39° |
| 2026-05-04 03:17 | 38.65932 | -19.23229 | 37221 ft | 477 kts | 39° |
| 2026-05-04 03:17 | 38.70803 | -19.17477 | 37227 ft | 476 kts | 39° |
| 2026-05-04 03:18 | 38.75672 | -19.11717 | 37226 ft | 476 kts | 39° |
| 2026-05-04 03:18 | 38.80503 | -19.05991 | 37219 ft | 476 kts | 39° |
| 2026-05-04 03:19 | 38.85359 | -19.00223 | 37220 ft | 476 kts | 39° |
| 2026-05-04 03:19 | 38.88974 | -18.95923 | 37222 ft | 476 kts | 39° |
| 2026-05-04 03:20 | 38.93821 | -18.90147 | 37221 ft | 475 kts | 39° |
| 2026-05-04 03:20 | 38.98665 | -18.84363 | 37219 ft | 475 kts | 39° |
| 2026-05-04 03:21 | 39.03506 | -18.78571 | 37225 ft | 475 kts | 39° |
| 2026-05-04 03:21 | 39.08341 | -18.72776 | 37219 ft | 475 kts | 39° |
| 2026-05-04 03:22 | 39.13176 | -18.66968 | 37219 ft | 475 kts | 39° |
| 2026-05-04 03:22 | 39.17999 | -18.61164 | 37215 ft | 475 kts | 39° |
| 2026-05-04 03:23 | 39.22820 | -18.55350 | 37223 ft | 475 kts | 39° |
| 2026-05-04 03:23 | 39.27641 | -18.49526 | 37210 ft | 475 kts | 39° |
| 2026-05-04 03:24 | 39.32456 | -18.43697 | 37215 ft | 474 kts | 39° |
| 2026-05-04 03:24 | 39.36060 | -18.39326 | 37211 ft | 474 kts | 39° |
| 2026-05-04 03:25 | 39.40870 | -18.33483 | 37215 ft | 474 kts | 40° |
| 2026-05-04 03:25 | 39.45677 | -18.27632 | 37198 ft | 474 kts | 39° |
| 2026-05-04 03:26 | 39.50443 | -18.21819 | 37199 ft | 474 kts | 40° |
| 2026-05-04 03:26 | 39.55243 | -18.15953 | 37207 ft | 474 kts | 40° |
| 2026-05-04 03:27 | 39.60037 | -18.10083 | 37214 ft | 474 kts | 40° |
| 2026-05-04 03:27 | 39.64826 | -18.04207 | 37215 ft | 474 kts | 40° |
| 2026-05-04 03:28 | 39.69622 | -17.98311 | 37210 ft | 475 kts | 40° |
| 2026-05-04 03:28 | 39.74412 | -17.92410 | 37208 ft | 475 kts | 40° |
| 2026-05-04 03:29 | 39.79202 | -17.86497 | 37207 ft | 475 kts | 40° |
| 2026-05-04 03:29 | 39.82752 | -17.82108 | 37209 ft | 475 kts | 40° |
| 2026-05-04 03:30 | 39.87540 | -17.76176 | 37209 ft | 475 kts | 40° |
| 2026-05-04 03:30 | 39.92324 | -17.70238 | 37207 ft | 475 kts | 40° |
| 2026-05-04 03:31 | 39.97110 | -17.64285 | 37207 ft | 476 kts | 40° |
| 2026-05-04 03:31 | 40.01898 | -17.58318 | 37205 ft | 476 kts | 40° |
| 2026-05-04 03:32 | 40.06682 | -17.52344 | 37203 ft | 476 kts | 40° |
| 2026-05-04 03:32 | 40.11462 | -17.46361 | 37204 ft | 476 kts | 40° |
| 2026-05-04 03:33 | 40.16242 | -17.40367 | 37199 ft | 476 kts | 40° |
| 2026-05-04 03:33 | 40.21021 | -17.34362 | 37201 ft | 477 kts | 40° |
| 2026-05-04 03:34 | 40.25802 | -17.28342 | 37205 ft | 477 kts | 40° |
| 2026-05-04 03:34 | 40.29313 | -17.23913 | 37199 ft | 477 kts | 40° |
| 2026-05-04 03:35 | 40.34094 | -17.17872 | 37199 ft | 477 kts | 40° |
| 2026-05-04 03:35 | 40.38867 | -17.11827 | 37197 ft | 477 kts | 40° |
| 2026-05-04 03:36 | 40.43642 | -17.05767 | 37197 ft | 478 kts | 40° |
| 2026-05-04 03:36 | 40.48416 | -16.99697 | 37186 ft | 478 kts | 40° |
| 2026-05-04 03:37 | 40.53187 | -16.93617 | 37188 ft | 478 kts | 40° |
| 2026-05-04 03:37 | 40.57957 | -16.87527 | 37206 ft | 478 kts | 40° |
| 2026-05-04 03:38 | 40.62724 | -16.81427 | 37193 ft | 478 kts | 40° |
| 2026-05-04 03:38 | 40.67490 | -16.75315 | 37195 ft | 478 kts | 40° |
| 2026-05-04 03:39 | 40.72256 | -16.69192 | 37195 ft | 479 kts | 40° |
| 2026-05-04 03:39 | 40.75728 | -16.64721 | 37192 ft | 479 kts | 40° |
| 2026-05-04 03:40 | 40.80493 | -16.58576 | 37192 ft | 479 kts | 40° |
| 2026-05-04 03:40 | 40.85228 | -16.52456 | 37191 ft | 479 kts | 40° |
| 2026-05-04 03:41 | 40.90021 | -16.46247 | 37190 ft | 479 kts | 40° |
| 2026-05-04 03:41 | 40.94749 | -16.40111 | 37189 ft | 479 kts | 40° |
| 2026-05-04 03:42 | 40.99504 | -16.33926 | 37187 ft | 479 kts | 40° |
| 2026-05-04 03:42 | 41.04252 | -16.27737 | 37188 ft | 479 kts | 40° |
| 2026-05-04 03:43 | 41.08999 | -16.21535 | 37180 ft | 479 kts | 40° |
| 2026-05-04 03:43 | 41.13739 | -16.15331 | 37181 ft | 479 kts | 40° |
| 2026-05-04 03:44 | 41.18477 | -16.09115 | 37183 ft | 479 kts | 40° |
| 2026-05-04 03:44 | 41.21953 | -16.04546 | 37181 ft | 479 kts | 40° |
| 2026-05-04 03:45 | 41.26687 | -15.98311 | 37175 ft | 479 kts | 40° |
| 2026-05-04 03:45 | 41.31412 | -15.92076 | 37179 ft | 479 kts | 40° |
| 2026-05-04 03:46 | 41.36139 | -15.85825 | 37182 ft | 479 kts | 40° |
| 2026-05-04 03:46 | 41.40863 | -15.79563 | 37179 ft | 479 kts | 40° |
| 2026-05-04 03:47 | 41.45550 | -15.73338 | 37176 ft | 479 kts | 40° |
| 2026-05-04 03:47 | 41.50266 | -15.67059 | 37180 ft | 479 kts | 40° |
| 2026-05-04 03:48 | 41.54980 | -15.60770 | 37176 ft | 479 kts | 40° |
| 2026-05-04 03:48 | 41.59694 | -15.54467 | 37174 ft | 479 kts | 40° |
| 2026-05-04 03:49 | 41.64402 | -15.48160 | 37167 ft | 479 kts | 40° |
| 2026-05-04 03:49 | 41.67860 | -15.43517 | 37168 ft | 479 kts | 40° |
| 2026-05-04 03:50 | 41.72555 | -15.37201 | 37173 ft | 479 kts | 40° |
| 2026-05-04 03:50 | 41.77252 | -15.30869 | 37168 ft | 479 kts | 40° |
| 2026-05-04 03:51 | 41.81942 | -15.24533 | 37162 ft | 479 kts | 40° |
| 2026-05-04 03:51 | 41.86629 | -15.18186 | 37165 ft | 479 kts | 40° |
| 2026-05-04 03:52 | 41.91310 | -15.11834 | 37167 ft | 479 kts | 40° |
| 2026-05-04 03:52 | 41.95991 | -15.05467 | 37163 ft | 479 kts | 40° |
| 2026-05-04 03:53 | 42.00764 | -14.99257 | 37162 ft | 475 kts | 35° |
| 2026-05-04 03:53 | 42.06050 | -14.94023 | 37165 ft | 471 kts | 30° |
| 2026-05-04 03:54 | 42.10509 | -14.89810 | 37164 ft | 471 kts | 30° |
| 2026-05-04 03:54 | 42.15300 | -14.85255 | 37163 ft | 471 kts | 31° |
| 2026-05-04 03:55 | 42.20671 | -14.80088 | 37162 ft | 472 kts | 31° |
| 2026-05-04 03:55 | 42.25970 | -14.74954 | 37161 ft | 472 kts | 31° |
| 2026-05-04 03:56 | 42.31295 | -14.69780 | 37158 ft | 472 kts | 31° |
| 2026-05-04 03:56 | 42.36620 | -14.64597 | 37139 ft | 472 kts | 31° |
| 2026-05-04 03:57 | 42.41084 | -14.60245 | 37147 ft | 472 kts | 31° |
| 2026-05-04 03:57 | 42.46369 | -14.55083 | 37150 ft | 472 kts | 31° |
| 2026-05-04 03:58 | 42.54348 | -14.47269 | 37144 ft | 472 kts | 31° |
| 2026-05-04 03:58 | 42.59672 | -14.42041 | 37143 ft | 472 kts | 31° |
| 2026-05-04 03:59 | 42.63577 | -14.38200 | 37143 ft | 473 kts | 31° |
| 2026-05-04 03:59 | 42.68897 | -14.32956 | 37141 ft | 473 kts | 31° |
| 2026-05-04 04:00 | 42.74225 | -14.27692 | 37139 ft | 473 kts | 32° |
| 2026-05-04 04:00 | 42.79550 | -14.22421 | 37140 ft | 474 kts | 32° |
| 2026-05-04 04:01 | 42.84883 | -14.17130 | 37140 ft | 474 kts | 32° |
| 2026-05-04 04:01 | 42.90211 | -14.11833 | 37136 ft | 474 kts | 32° |
| 2026-05-04 04:02 | 42.95545 | -14.06517 | 37135 ft | 475 kts | 32° |
| 2026-05-04 04:02 | 43.00880 | -14.01189 | 37134 ft | 475 kts | 32° |
| 2026-05-04 04:03 | 43.06214 | -13.95851 | 37132 ft | 476 kts | 32° |
| 2026-05-04 04:03 | 43.11556 | -13.90493 | 37133 ft | 476 kts | 32° |
| 2026-05-04 04:04 | 43.15452 | -13.86577 | 37134 ft | 477 kts | 32° |
| 2026-05-04 04:04 | 43.20793 | -13.81199 | 37129 ft | 477 kts | 32° |
| 2026-05-04 04:05 | 43.26144 | -13.75799 | 37124 ft | 478 kts | 32° |
| 2026-05-04 04:05 | 43.31461 | -13.70421 | 37123 ft | 478 kts | 32° |
| 2026-05-04 04:06 | 43.36814 | -13.64995 | 37125 ft | 478 kts | 33° |
| 2026-05-04 04:06 | 43.42168 | -13.59555 | 37120 ft | 479 kts | 33° |
| 2026-05-04 04:07 | 43.47532 | -13.54093 | 37122 ft | 479 kts | 33° |
| 2026-05-04 04:07 | 43.52890 | -13.48625 | 37116 ft | 480 kts | 33° |
| 2026-05-04 04:08 | 43.58256 | -13.43136 | 37118 ft | 480 kts | 33° |
| 2026-05-04 04:08 | 43.63628 | -13.37628 | 37113 ft | 481 kts | 33° |
| 2026-05-04 04:09 | 43.67646 | -13.33501 | 37110 ft | 481 kts | 33° |
| 2026-05-04 04:09 | 43.73019 | -13.27971 | 37115 ft | 482 kts | 33° |
| 2026-05-04 04:10 | 43.78398 | -13.22421 | 37110 ft | 482 kts | 33° |
| 2026-05-04 04:10 | 43.83778 | -13.16858 | 37105 ft | 483 kts | 33° |
| 2026-05-04 04:11 | 43.89159 | -13.11280 | 37104 ft | 483 kts | 33° |
| 2026-05-04 04:11 | 43.94538 | -13.05690 | 37108 ft | 483 kts | 33° |
| 2026-05-04 04:12 | 43.99919 | -13.00089 | 37094 ft | 484 kts | 34° |
| 2026-05-04 04:12 | 44.05370 | -12.94627 | 37098 ft | 483 kts | 32° |
| 2026-05-04 04:13 | 44.10882 | -12.89277 | 37096 ft | 483 kts | 32° |
| 2026-05-04 04:13 | 44.16387 | -12.83906 | 37097 ft | 484 kts | 32° |
| 2026-05-04 04:14 | 44.20485 | -12.79875 | 37092 ft | 484 kts | 32° |
| 2026-05-04 04:14 | 44.25982 | -12.74440 | 37092 ft | 485 kts | 32° |
| 2026-05-04 04:15 | 44.31486 | -12.68984 | 37092 ft | 485 kts | 32° |
| 2026-05-04 04:15 | 44.36996 | -12.63510 | 37088 ft | 486 kts | 32° |
| 2026-05-04 04:16 | 44.42506 | -12.58026 | 37089 ft | 486 kts | 33° |
| 2026-05-04 04:16 | 44.48016 | -12.52528 | 37079 ft | 487 kts | 33° |
| 2026-05-04 04:17 | 44.53530 | -12.47012 | 37077 ft | 487 kts | 33° |
| 2026-05-04 04:17 | 44.59040 | -12.41488 | 37073 ft | 487 kts | 33° |
| 2026-05-04 04:18 | 44.64504 | -12.35996 | 37078 ft | 487 kts | 33° |
| 2026-05-04 04:18 | 44.70026 | -12.30434 | 37072 ft | 488 kts | 33° |
| 2026-05-04 04:19 | 44.74073 | -12.26348 | 37069 ft | 488 kts | 33° |
| 2026-05-04 04:19 | 44.79587 | -12.20771 | 37071 ft | 488 kts | 33° |
| 2026-05-04 04:20 | 44.85097 | -12.15183 | 37071 ft | 488 kts | 33° |
| 2026-05-04 04:20 | 44.90605 | -12.09584 | 37061 ft | 488 kts | 33° |
| 2026-05-04 04:21 | 44.96114 | -12.03971 | 37062 ft | 488 kts | 33° |
| 2026-05-04 04:21 | 45.01557 | -11.98211 | 37060 ft | 490 kts | 38° |
| 2026-05-04 04:22 | 45.06722 | -11.91933 | 37059 ft | 490 kts | 39° |
| 2026-05-04 04:22 | 45.11848 | -11.85561 | 37060 ft | 491 kts | 39° |
| 2026-05-04 04:23 | 45.16983 | -11.79201 | 37050 ft | 491 kts | 39° |
| 2026-05-04 04:23 | 45.22138 | -11.72841 | 37050 ft | 491 kts | 39° |
| 2026-05-04 04:24 | 45.25968 | -11.68114 | 37053 ft | 491 kts | 39° |
| 2026-05-04 04:24 | 45.31121 | -11.61743 | 37036 ft | 491 kts | 39° |
| 2026-05-04 04:25 | 45.36273 | -11.55355 | 37051 ft | 492 kts | 39° |
| 2026-05-04 04:25 | 45.41425 | -11.48948 | 37048 ft | 492 kts | 39° |
| 2026-05-04 04:26 | 45.46575 | -11.42529 | 37049 ft | 492 kts | 39° |
| 2026-05-04 04:26 | 45.51726 | -11.36091 | 37028 ft | 492 kts | 39° |
| 2026-05-04 04:27 | 45.56874 | -11.29643 | 37029 ft | 493 kts | 39° |
| 2026-05-04 04:27 | 45.62019 | -11.23181 | 37045 ft | 493 kts | 39° |
| 2026-05-04 04:28 | 45.67164 | -11.16700 | 37024 ft | 493 kts | 40° |
| 2026-05-04 04:28 | 45.72306 | -11.10207 | 37028 ft | 493 kts | 40° |
| 2026-05-04 04:29 | 45.76136 | -11.05361 | 37023 ft | 493 kts | 40° |
| 2026-05-04 04:29 | 45.81277 | -10.98840 | 37021 ft | 494 kts | 40° |
| 2026-05-04 04:30 | 45.86420 | -10.92301 | 37018 ft | 494 kts | 40° |
| 2026-05-04 04:30 | 45.91569 | -10.85740 | 37014 ft | 495 kts | 40° |
| 2026-05-04 04:31 | 45.96709 | -10.79172 | 37013 ft | 495 kts | 40° |
| 2026-05-04 04:31 | 46.01858 | -10.72574 | 37007 ft | 495 kts | 40° |
| 2026-05-04 04:32 | 46.06999 | -10.65969 | 37007 ft | 496 kts | 40° |
| 2026-05-04 04:32 | 46.12146 | -10.59340 | 37007 ft | 496 kts | 40° |
| 2026-05-04 04:33 | 46.17285 | -10.52702 | 36998 ft | 496 kts | 40° |
| 2026-05-04 04:33 | 46.22428 | -10.46044 | 37000 ft | 497 kts | 40° |
| 2026-05-04 04:34 | 46.26177 | -10.41179 | 36995 ft | 497 kts | 41° |
| 2026-05-04 04:34 | 46.31315 | -10.34497 | 36995 ft | 497 kts | 41° |
| 2026-05-04 04:35 | 46.36444 | -10.27808 | 36992 ft | 497 kts | 41° |
| 2026-05-04 04:35 | 46.41577 | -10.21096 | 36993 ft | 497 kts | 41° |
| 2026-05-04 04:36 | 46.46665 | -10.14426 | 36991 ft | 497 kts | 41° |
| 2026-05-04 04:36 | 46.51787 | -10.07692 | 36986 ft | 497 kts | 41° |
| 2026-05-04 04:37 | 46.62009 | -9.94201 | 36977 ft | 497 kts | 41° |
| 2026-05-04 04:38 | 46.67121 | -9.87430 | 36979 ft | 497 kts | 41° |
| 2026-05-04 04:38 | 46.72226 | -9.80646 | 36976 ft | 497 kts | 41° |
| 2026-05-04 04:39 | 46.76050 | -9.75554 | 36980 ft | 497 kts | 41° |
| 2026-05-04 04:39 | 46.81149 | -9.68748 | 36977 ft | 497 kts | 41° |
| 2026-05-04 04:40 | 46.86248 | -9.61923 | 36974 ft | 497 kts | 41° |
| 2026-05-04 04:40 | 46.91344 | -9.55084 | 36973 ft | 497 kts | 41° |
| 2026-05-04 04:41 | 46.96434 | -9.48235 | 36974 ft | 498 kts | 41° |
| 2026-05-04 04:41 | 47.01527 | -9.41363 | 36972 ft | 498 kts | 42° |
| 2026-05-04 04:42 | 47.06548 | -9.34569 | 36973 ft | 498 kts | 42° |
| 2026-05-04 04:42 | 47.11636 | -9.27667 | 36967 ft | 498 kts | 42° |
| 2026-05-04 04:43 | 47.16714 | -9.20759 | 36967 ft | 498 kts | 42° |
| 2026-05-04 04:43 | 47.21795 | -9.13828 | 36971 ft | 498 kts | 42° |
| 2026-05-04 04:44 | 47.25589 | -9.08641 | 36963 ft | 498 kts | 42° |
| 2026-05-04 04:44 | 47.30627 | -9.01734 | 36966 ft | 498 kts | 42° |
| 2026-05-04 04:45 | 47.35694 | -8.94770 | 36966 ft | 498 kts | 42° |
| 2026-05-04 04:47 | 47.50043 | -8.68918 | 36962 ft | 496 kts | 82° |
| 2026-05-04 04:47 | 47.50178 | -8.58835 | 36962 ft | 495 kts | 91° |
| 2026-05-04 04:48 | 47.50070 | -8.48620 | 36964 ft | 498 kts | 91° |
| 2026-05-04 04:49 | 47.50050 | -8.25681 | 36953 ft | 492 kts | 90° |
| 2026-05-04 04:49 | 47.50041 | -8.15610 | 36957 ft | 489 kts | 90° |
| 2026-05-04 04:50 | 47.50409 | -8.05613 | 36951 ft | 488 kts | 74° |
| 2026-05-04 04:50 | 47.51730 | -8.01006 | 36967 ft | 488 kts | 58° |
| 2026-05-04 04:50 | 47.53808 | -7.97041 | 36959 ft | 490 kts | 45° |
| 2026-05-04 04:51 | 47.56488 | -7.93945 | 36950 ft | 489 kts | 31° |
| 2026-05-04 04:51 | 47.59437 | -7.91417 | 36969 ft | 491 kts | 30° |
| 2026-05-04 04:51 | 47.65404 | -7.86416 | 36965 ft | 495 kts | 30° |
| 2026-05-04 04:52 | 47.71383 | -7.81305 | 36962 ft | 497 kts | 30° |
| 2026-05-04 04:52 | 47.77306 | -7.76129 | 36957 ft | 497 kts | 31° |
| 2026-05-04 04:53 | 47.83250 | -7.70886 | 36956 ft | 496 kts | 31° |
| 2026-05-04 04:53 | 47.89178 | -7.65642 | 36955 ft | 494 kts | 31° |
| 2026-05-04 04:54 | 47.93591 | -7.61733 | 36956 ft | 493 kts | 31° |
| 2026-05-04 04:54 | 47.99479 | -7.56508 | 36955 ft | 491 kts | 31° |
| 2026-05-04 04:55 | 48.05346 | -7.51289 | 36957 ft | 490 kts | 31° |
| 2026-05-04 04:55 | 48.11199 | -7.46068 | 36958 ft | 490 kts | 31° |
| 2026-05-04 04:56 | 48.17046 | -7.40838 | 36960 ft | 490 kts | 31° |
| 2026-05-04 04:56 | 48.22893 | -7.35595 | 36958 ft | 490 kts | 31° |
| 2026-05-04 04:57 | 48.28741 | -7.30336 | 36960 ft | 490 kts | 31° |
| 2026-05-04 04:57 | 48.34589 | -7.25062 | 36958 ft | 491 kts | 31° |
| 2026-05-04 04:58 | 48.40444 | -7.19769 | 36959 ft | 491 kts | 31° |
| 2026-05-04 04:58 | 48.46293 | -7.14466 | 36963 ft | 491 kts | 31° |
| 2026-05-04 04:59 | 48.50452 | -7.10686 | 36963 ft | 491 kts | 31° |
| 2026-05-04 04:59 | 48.56307 | -7.05353 | 36961 ft | 491 kts | 31° |
| 2026-05-04 05:00 | 48.62150 | -7.00017 | 36961 ft | 491 kts | 31° |
| 2026-05-04 05:01 | 48.70916 | -6.91983 | 36966 ft | 491 kts | 31° |
| 2026-05-04 05:01 | 48.76760 | -6.86609 | 36958 ft | 491 kts | 31° |
| 2026-05-04 05:02 | 48.82594 | -6.81228 | 36959 ft | 491 kts | 31° |
| 2026-05-04 05:02 | 48.88424 | -6.75837 | 36966 ft | 491 kts | 31° |
| 2026-05-04 05:03 | 48.94251 | -6.70435 | 36971 ft | 491 kts | 31° |
| 2026-05-04 05:04 | 49.05813 | -6.59669 | 36961 ft | 491 kts | 32° |
| 2026-05-04 05:04 | 49.10175 | -6.55591 | 36969 ft | 491 kts | 32° |
| 2026-05-04 05:06 | 49.33407 | -6.33732 | 36962 ft | 491 kts | 32° |
| 2026-05-04 05:07 | 49.39256 | -6.28189 | 36961 ft | 491 kts | 32° |
| 2026-05-04 05:07 | 49.45021 | -6.22711 | 36962 ft | 491 kts | 32° |
| 2026-05-04 05:09 | 49.62619 | -5.94793 | 36962 ft | 490 kts | 55° |
| 2026-05-04 05:09 | 49.64587 | -5.90498 | 36960 ft | 490 kts | 55° |
| 2026-05-04 05:10 | 49.68547 | -5.81926 | 36960 ft | 491 kts | 54° |
| 2026-05-04 05:10 | 49.72526 | -5.73363 | 36962 ft | 491 kts | 54° |
| 2026-05-04 05:11 | 49.76507 | -5.64786 | 36960 ft | 491 kts | 54° |